COOLWX HOME

EXTREME HOME

OTHER COOLWX PAGES
    Coolwx Hit Images
    Extreme Weather
    Global Forecasts
    Hourly Model Forecasts
    Mesoscale Analysis
    Obs. Weather Database
    Offshore Weather Data
    Precipitation Type
    Record Breakers
    U.S. Weather Statistics


EXTREME WX CATEGORIES
   CITIES & VALUES:
       Temperature
       Dewpoint
       Heat Index
       Wind
       Wind Chill
       Pressure
       Pressure Change
       Precip Type/Intensity
       Precip Amount
       Thunderstorm
       Blizzard
       Visibility
       Astronomical
       Other
       Multiple
       Unknown
   CITIES & FULL REPORTS:
       Temperature
       Dewpoint
       Heat Index
       Wind
       Wind Chill
       Pressure
       Pressure Change
       Precip Type/Intensity
       Precip Amount
       Thunderstorm
       Blizzard
       Visibility
       Astronomical
       Other
       Multiple
   USA & WORLD PLOTS:
       Temperature
       Dewpoint
       Wind
       Wind Chill & Heat Index
       Pressure
       Pressure Change
       Precip Type/Intensity
       Precip Amount
       Thunderstorm
       Blizzard
       Visibility
       Astronomical
       Other
       Unknown
   REPEAT OFFENDERS:
       Today
       Yesterday
       This month
       This year
       Since 2007
   RSS:
       Feed
   ARCHIVE:
       2024072011
       2024072009
       2024072006
       2024072003
       2024072000
       2024071921
       2024071918
       2024071915
       2024071912
       2024071909
       2024071906
       2024071903
       2024071900
       2024071821
       2024071818
       2024071815
       2024071812
       2024071809
       2024071806
       2024071803
       2024071800
       2024071721
       2024071718
       2024071715

CONTACT
       Bob Hart
       (rhart at fsu.edu)

Extreme & Weird Weather of the World - Archive for 2024061600
Currently using 35840 observations from 5158 unique global stations over the past 3 hours.
Last Updated: Sun Jun 16 00:46:33 UTC 2024



0 stations reporting temperature -55°C or colder

1 station reporting temperature -50°C to -54°C

0 stations reporting temperature -45°C to -49°C

0 stations reporting temperature -40°C to -44°C

0 stations reporting temperature 55°C or warmer

0 stations reporting temperature 50°C to 54°C

9 stations reporting temperature 45°C to 49°C

49 stations reporting temperature 40°C to 44°C


6 stations reporting dewpoint 30°C or greater

31 stations reporting dewpoint 28-29°C

196 stations reporting dewpoint 26-27°C


0 stations reporting wind gusts 70kt or stronger

2 stations reporting wind gusts 60-69kt

7 stations reporting wind gusts 50-59kt

59 stations reporting wind gusts 40-49kt


1 station reporting (sustained) wind chill of -55°C or colder

0 stations reporting (sustained) wind chill of -50°C to -54°C

0 stations reporting (sustained) wind chill of -45°C to -49°C

0 stations reporting (sustained) wind chill of -40°C to -44°C


5 stations reporting heat index of 55°C or hotter

3 stations reporting heat index of 50°C to 54°C

13 stations reporting heat index of 45°C to 49°C

120 stations reporting heat index of 40°C to 44°C

  • ZJSY: Sanya/Fenghuang, China [44.3°C, 111.7°F]
    ZJSY 160000Z VRB01MPS 9999 -TSRA FEW013 SCT020 FEW026CB BKN066 31/29 Q1006
  • VVCI: Cat Bi, Viet Nam [44.3°C, 111.7°F]
    VVCI 160030Z 12006KT 9999 FEW012 SCT014 31/29 Q1003 NOSIG
  • KBLH: Blythe, Blythe Airport, CA, United States [44.2°C, 111.5°F]
    KBLH 152152Z AUTO 10SM FEW110 46/01 A2960 RMK AO2 SLP015 T04560011
  • KWBF: Walker Ridge 29 Platform, LA, United States [44.1°C, 111.3°F]
    KWBF 160015Z AUTO VRB04KT 10SM CLR 30/30 A2987 RMK A01
  • KVNC: Venice, FL, United States [44.1°C, 111.3°F]
    KVNC 152135Z AUTO 21011KT 10SM FEW060 FEW070 SCT090 30/30 A2997 RMK AO2
  • KSNH: Savannah, TN, United States [44.1°C, 111.3°F]
    KSNH 152330Z AUTO 12004KT 30/30 A2991 RMK A01
  • OYAA: Aden, Yemen [44.1°C, 111.3°F]
    OYAA 152200Z 09003KT CAVOK 32/28 Q1002 NOSIG
  • OOSH: Sohar Majis, Oman [44.1°C, 111.3°F]
    OOSH 152050Z AUTO 15006KT //// ////// 32/28 Q0999 RMK 0996
  • OOMS: Seeb, Intl Arpt, Oman [44.1°C, 111.3°F]
    OOMS 152050Z VRB02KT 8000 NSC 32/28 Q1000 NOSIG
  • OMFJ: Fujairah, United Arab Emirates [44.1°C, 111.3°F]
    OMFJ 152300Z 05003KT 020V080 8000 NSC 32/28 Q1000 A2955
  • OIZJ: Jask, Iran [44.1°C, 111.3°F]
    OIZJ 152100Z 17006KT 6000 NSC 32/28 Q0999
  • OBBI: Bahrain Intl Arpt, Bahrain [44.1°C, 111.3°F]
    OBBI 152100Z 10005KT CAVOK 32/28 Q0998 NOSIG
  • KFFZ: Mesa / Falcon Field, AZ, United States [44.0°C, 111.2°F]
    KFFZ 152354Z AUTO 30008KT 10SM CLR 42/02 A2964 RMK AO2 SLP008 T04220017 10428
  • K4M9: Corning, AR, United States [43.8°C, 110.8°F]
    K4M9 160035Z AUTO 07005KT 10SM FEW060 33/27 A2990 RMK A01
  • OEGN: Gizan, Saudi Arabia [43.5°C, 110.3°F]
    OEGN 152300Z 35003KT CAVOK 34/26 Q1002 NOSIG
  • MMPA: Poza Rica / Palizada, Mexico [43.5°C, 110.3°F]
    MMPA 152145Z 09010KT 7SM SKC 34/26 A2976 RMK DSTN CB SE
  • KGXF: Gila Bend AF, AZ, United States [43.0°C, 109.4°F]
    KGXF 152355Z AUTO 24009G15KT 10SM CLR 45/01 A2961 RMK AO2 SLP011 T04470010 10451
  • KNJK: El Centro, Naval Air Facility, CA, United States [42.9°C, 109.2°F]
    KNJK 152156Z 13007KT 10SM CLR 45/09 A2959 RMK AO2 SLP036 T04500089
  • KIPL: Imperial, Imperial County Airport, CA, United States [42.7°C, 108.8°F]
    KIPL 152253Z AUTO 13008KT 10SM BKN110 44/10 A2955 RMK AO2 SLP009 T04440100
  • KPKV: Port Lavaca, Calhoun County Airport, TX, United States [42.6°C, 108.6°F]
    KPKV 152055Z AUTO 11014KT 10SM CLR 34/26 A2987 RMK AO2 T03350259
  • KLGF: Laguna AAF, AZ, United States [42.5°C, 108.5°F]
    KLGF 152355Z AUTO 23011G19KT 9SM CLR 45/01 A2959 RMK AO2 SLP015 T04450009 10451
  • KSRC: Searcy, Searcy Municipal Airport, AR, United States [42.4°C, 108.3°F]
    KSRC 152056Z AUTO VRB03KT 10SM SCT046 BKN065 35/24 A2992 RMK AO2 SLP130 T03500244
  • RORT: Tarama Island, Japan [42.3°C, 108.1°F]
    RORT 160000Z AUTO 18010KT 9999 FEW013 31/28 Q1009
  • RORS: Shimoji-Shima Island, Japan [42.3°C, 108.1°F]
    RORS 160026Z AUTO 18011KT 9999 SCT009 SCT025 BKN031 31/28 Q1009 RMK A2982
  • ROIG: Ishigakijima, Japan [42.3°C, 108.1°F]
    ROIG 160000Z 19012KT 9999 FEW010 31/28 Q1009
  • PTRO: Babelthuap Island, Babelthuap/Koror Airport, Palau [42.3°C, 108.1°F]
    PTRO 152250Z 00000KT 15SM FEW010 SCT016 BKN130 BKN300 31/28 A2986
  • OIKO: Minab, Iran [42.3°C, 108.1°F]
    OIKO 152300Z AUTO VRB02KT //// // ////// 31/28 Q1000
  • MZBZ: Goldston Intl. Airport, Belize [42.3°C, 108.1°F]
    MZBZ 152200Z 12007KT 9999 BKN019 31/28 A2969 Q1005 NOSIG
  • K8T6: Live Oak County, TX, United States [42.3°C, 108.1°F]
    K8T6 152055Z AUTO 13011G22KT 110V180 10SM FEW065 38/21 A2980 RMK AO2
  • VEGY: Gaya, India [42.2°C, 107.9°F]
    VEGY 152300Z 00000KT 3000 HZ FEW020 SCT100 32/27 Q0998
  • RCSS: Sungshan / Taipei, Taiwan [42.2°C, 107.9°F]
    RCSS 160030Z VRB02KT 9999 FEW020 SCT045 BKN200 32/27 Q1008 NOSIG RMK A2978
  • OIKB: Bandarabbass, Iran [42.2°C, 107.9°F]
    OIKB 152200Z 33004KT 6000 NSC 32/27 Q0999 A2952
  • OIAM: Bandar Mahshahr / Mahshahr, Iran [42.2°C, 107.9°F]
    OIAM 152100Z 12004KT CAVOK 32/27 Q0997
  • MHRO: Roatan, Honduras [42.2°C, 107.9°F]
    MHRO 152100Z 09014KT 9999 FEW022 32/27 Q1006 A2971 NOSIG
  • MDPP: Puerto Plata International, Dominican Republic [42.2°C, 107.9°F]
    MDPP 152100Z 07010KT 9999 FEW020 SCT300 32/27 Q1012
  • OEDR: Dhahran, Saudi Arabia [42.1°C, 107.7°F]
    OEDR 152300Z VRB03KT CAVOK 30/29 Q0998
  • K4F2: Carthage Panola County, TX, United States [41.9°C, 107.4°F]
    K4F2 152235Z AUTO 12005KT 10SM SCT050 36/23 A2987 RMK AO2 T03620229
  • OOKB: Khassab, Oman [41.9°C, 107.4°F]
    OOKB 152150Z AUTO VRB01KT CAVOK ////// 34/25 Q0999 NOSIG
  • KHHV: Hoover Diana, TX, United States [41.9°C, 107.4°F]
    KHHV 152235Z AUTO 9SM FEW025 FEW050 FEW065 34/25 A2981 RMK A01
  • K42A: UNKNOWN, [41.9°C, 107.4°F]
    K42A 152115Z AUTO 11008KT 10SM SCT049 34/25 A2993 RMK AO2
  • MTPP: Port-Au-Prince / Aeroport International, Haiti [41.8°C, 107.2°F]
    MTPP 152100Z 31008KT 270V010 9000 SCT028TCU 35/24 Q1011 A2986 RMK/TCU/N/S
  • KT69: Sinton, TX, United States [41.8°C, 107.2°F]
    KT69 152115Z AUTO 15013G19KT 10SM BKN045 35/24 A2983 RMK A01
  • KMFE: McAllen, Miller Intl Arpt, TX, United States [41.8°C, 107.2°F]
    KMFE 152153Z 11012G19KT 10SM FEW060 SCT080 BKN095 37/22 A2978 RMK AO2 SLP082 T03670222
  • KGLH: Greenville, Mid Delta Regional Airport, MS, United States [41.8°C, 107.2°F]
    KGLH 152053Z 15007KT 10SM CLR 37/22 A2991 RMK AO2 SLP132 T03670222 56015
  • KLRD: Laredo Intl Arpt, TX, United States [41.7°C, 107.0°F]
    KLRD 152256Z 11007KT 10SM FEW085 39/18 A2974 RMK AO2 SLP064 T03940183
  • K3T5: La Grange, TX, United States [41.7°C, 107.0°F]
    K3T5 152135Z AUTO 12006KT 10SM FEW047 33/25 A2983 RMK AO2 T03340254
  • KQRD: UNKNOWN, [41.6°C, 106.8°F]
    KQRD 152055Z AUTO 15005KT 8SM CLR 32/27 A2991 RMK AO2 SLP132 T03210266 57011
  • KPRS: Presidio, TX, United States [41.5°C, 106.7°F]
    KPRS 152135Z AUTO 17008KT 140V200 10SM CLR 41/16 A2980 RMK AO2 T04080156
  • KTRM: Thermal, CA, United States [41.5°C, 106.7°F]
    KTRM 152252Z AUTO VRB04KT 10SM CLR 44/06 A2955 RMK AO2 SLP009 T04440061
  • KL08: Borrego Springs Valley, CA, United States [41.4°C, 106.5°F]
    KL08 152235Z AUTO 27017G24KT 10SM CLR 45/04 A2961 RMK AO2
  • KQHY: Fl Hurlbert, United States [41.4°C, 106.5°F]
    KQHY 152055Z AUTO 16005KT 10SM CLR 32/27 A2993 RMK AO2 SLP143 T03190266 57010
  • KNQI: Kingsville, Naval Air Stn, TX, United States [41.3°C, 106.3°F]
    KNQI 152056Z AUTO 10015G23KT 10SM CLR 37/21 A2982 RMK AO2 PK WND 11027/2015
  • KRFI: Henderson, TX, United States [41.1°C, 105.9°F]
    KRFI 152255Z AUTO 19004KT 10SM SCT055 SCT065 37/21 A2988 RMK AO2 T03690213
  • KT20: Gonzales, TX, United States [41.1°C, 105.9°F]
    KT20 152135Z AUTO 11009KT 10SM SCT050 SCT060 SCT070 35/23 A2983 RMK AO2 T03520233
  • K60R: UNKNOWN, [41.1°C, 105.9°F]
    K60R 152055Z AUTO 16008KT 10SM SCT060 SCT070 34/24 A2984 RMK AO2 SLP024 T03400244
  • KBAZ: New Braunfels, TX, United States [41.0°C, 105.8°F]
    KBAZ 152151Z 12010KT 10SM CLR 36/23 A2981 RMK AO2 SLP084 T03560228
  • KEBG: Edinburg, Edinburg Intl Arpt, TX, United States [41.0°C, 105.8°F]
    KEBG 152055Z AUTO 13010KT 10SM FEW060 SCT080 SCT090 37/21 A2978 RMK AO2 PK
  • KHRL: Harlingen, Rio Grande Valley Intl Arpt, TX, United States [41.0°C, 105.8°F]
    KHRL 152052Z 10013G23KT 10SM CLR 36/22 A2981 RMK AO2 PK WND 07028/2001 SLP094
  • MMNL: Nuevo Laredo International, Mexico [41.0°C, 105.8°F]
    MMNL 152143Z 11010KT 10SM SCT030 39/18 A2976 RMK 8/100
  • KSDL: Scottsdale, Scottsdale Airport, AZ, United States [40.9°C, 105.6°F]
    KSDL 152253Z 26008G14KT 10SM CLR 42/01 A2968 RMK AO2 SLP020 T04220011
  • KBKS: Falfurrias, Brooks County Airport, TX, United States [40.9°C, 105.6°F]
    KBKS 152155Z AUTO 12010G19KT 10SM FEW060 36/22 A2978 RMK AO2 SLP046 T03640217
  • KNPA: Pensacola, Naval Air Stn, FL, United States [40.9°C, 105.6°F]
    KNPA 152230Z 16008KT 10SM FEW080 SCT250 33/25 A2990 RMK T03330250
  • KECP: Panama City, FL, United States [40.9°C, 105.6°F]
    KECP 152153Z 15012KT 10SM CLR 33/25 A2991 RMK AO1 SLP138 T03330250
  • KHYI: San Marcos, San Marcos Municipal Airport, TX, United States [40.9°C, 105.6°F]
    KHYI 152056Z 12009KT 10SM SCT050 34/24 A2986 RMK AO2 SLP103 T03440239 56024
  • KRBO: Robstown, Nueces County Airport, TX, United States [40.9°C, 105.6°F]
    KRBO 152055Z AUTO 12011G19KT 10SM SCT047 36/23 A2983 RMK AO2 T03550227
  • K2R9: Kenedy Karnes County, TX, United States [40.8°C, 105.4°F]
    K2R9 152135Z AUTO 10013G18KT 10SM SCT055 BKN065 37/21 A2982 RMK AO2 T03670213
  • KFPY: Perry-Foley, FL, United States [40.8°C, 105.4°F]
    KFPY 152055Z AUTO 19012KT 10SM CLR 34/24 A2994 RMK AO2 T03390243
  • GAKD: Kayes, Mali [40.7°C, 105.2°F]
    GAKD 152100Z 30004KT CAVOK 36/22 Q1009
  • KHBV: Hebbronville, Jim Hogg County Airport, TX, United States [40.7°C, 105.2°F]
    KHBV 152135Z AUTO 14012KT 5SM HZ SCT065 SCT085 38/19 A2981 RMK AO2 T03800193
  • KQBL: Fl Hurlbert, United States [40.7°C, 105.2°F]
    KQBL 152055Z AUTO VRB04KT 10SM CLR 32/26 A2994 RMK AO2 SLP144 WND DATA
  • KHRT: Hurlburt Field, FL, United States [40.7°C, 105.2°F]
    KHRT 152055Z AUTO 16012KT 10SM CLR 32/26 A2991 RMK AO2 SLP126 T03230258 57012
  • KCOT: Cotulla, Cotulla-La Salle County Airport, TX, United States [40.7°C, 105.2°F]
    KCOT 152253Z AUTO 11011G19KT 10SM BKN085 40/16 A2975 RMK AO2 SLP064 T04000156
  • NGTA: Tarawa, Kiribati [40.6°C, 105.0°F]
    NGTA 160000Z 17007KT 9999 FEW018TCU BKN040 32/26 Q1010
  • NCMH: Manihiki Island, Cook Islands [40.6°C, 105.0°F]
    NCMH 152300Z AUTO 11005KT //// ////// 32/26 Q1012
  • MMPS: Puerto Escondido, Mexico [40.6°C, 105.0°F]
    MMPS 152045Z 24006KT 12SM FEW020TCU SCT150 32/26 A2974 RMK 8/230 HZY
  • MMPQ: Palenque, Mexico [40.6°C, 105.0°F]
    MMPQ 152146Z 33010KT 6SM BKN030CB BKN070 32/26 A2958 RMK 8/360 MSGTX MMMX
  • MMCT: Chichen-Itza, Mexico [40.6°C, 105.0°F]
    MMCT 152049Z 12010KT 6SM BKN020CB BKN100 OVC250 32/26 A2979 RMK 8/363 HZY DSNT
  • KVKS: Vicksburg Municipal, MS, United States [40.6°C, 105.0°F]
    KVKS 160015Z AUTO 00000KT 10SM CLR 32/26 A2987 RMK A01
  • KPAM: Tyndall AFB, FL, United States [40.6°C, 105.0°F]
    KPAM 152050Z AUTO 19013KT 10SM -RA SCT075 SCT210 32/26 A2993 RMK AO2 RAB50
  • OOAD: Rafo Adam, Oman [40.6°C, 105.0°F]
    OOAD 152050Z AUTO 03008KT 010V070 7000 // NCD 35/23 Q1003 NOSIG
  • KDRP: UNKNOWN, [40.6°C, 105.0°F]
    KDRP 152155Z AUTO VRB04KT 10SM CLR 35/23 A2991 RMK AO2
  • RCTP: Chiang Kai Shek, Taiwan [40.6°C, 105.0°F]
    RCTP 160000Z 23005KT 200V280 9999 FEW015 BKN040 BKN200 31/27 Q1008 NOSIG RMK A2978
  • RCKH: Kaohsiung Intl Arpt, Taiwan [40.6°C, 105.0°F]
    RCKH 160030Z 20008KT 170V230 9999 SCT008 BKN022 31/27 Q1009 NOSIG RMK A2981
  • PTTP: Pohnpei, NWS Office, Micronesia [40.6°C, 105.0°F]
    PTTP 152255Z 11006KT 15SM SCT018 SCT130 BKN300 31/27 A2989
  • MWCB: Gerrard Smith Intl. / Cayman Brac, Cayman Islands [40.6°C, 105.0°F]
    MWCB 152300Z 08011KT 9999 SCT016 31/27 Q1012
  • OTBD: Doha Intl Arpt, Qatar [40.6°C, 105.0°F]
    OTBD 152100Z 16005KT CAVOK 33/25 Q0998 NOSIG
  • MMGM: Guaymas Intl Arpt, Mexico [40.6°C, 105.0°F]
    MMGM 152240Z 25015KT 10SM SKC 33/25 A2966
  • MGPB: Puerto Barrios, Guatemala [40.6°C, 105.0°F]
    MGPB 152100Z 36006KT 9999 SCT020 SCT200 33/25 Q1004 A2965
  • MGMM: Melchor de Mencos Airport, Guatemala [40.6°C, 105.0°F]
    MGMM 152300Z 05004KT 9999 FEW020 FEW025CB SCT090 33/25 Q1006 A2971 CB NE
  • KGZS: Pulaski, TN, United States [40.6°C, 105.0°F]
    KGZS 152055Z AUTO 00000KT 10SM FEW065 SCT080 33/25 A2996 RMK A01
  • KGCM: Claremore, Claremore Regional Airport, OK, United States [40.6°C, 105.0°F]
    KGCM 152235Z AUTO 14011G17KT 10SM CLR 33/25 A2985 RMK AO2 TSNO
  • KCCA: Clinton, AR, United States [40.6°C, 105.0°F]
    KCCA 152235Z AUTO VRB04KT 9SM SCT045 BKN055 BKN070 33/25 A2990 RMK AO2
  • GOTT: Tambacounda, Senegal [40.6°C, 105.0°F]
    GOTT 152100Z 20012KT CAVOK 33/25 Q1010
  • MMVR: Veracruz / Las Bajadas / General Heriberto Jara, Mexico [40.5°C, 104.9°F]
    MMVR 152048Z 36016KT 7SM SKC 34/24 A2973 RMK SLP067 57018 955 HZY DSNT
  • KOWI: Ottawa, KS, United States [40.5°C, 104.9°F]
    KOWI 152135Z AUTO 17012G20KT 10SM SCT047 SCT060 SCT070 34/24 A2984 RMK AO2 PWINO
  • KM40: Aberdeen, MS, United States [40.5°C, 104.9°F]
    KM40 152355Z AUTO 00000KT 10SM FEW075 34/24 A2993 RMK AO2
  • MMPG: Piedras Negras, Coah., Mexico [40.5°C, 104.9°F]
    MMPG 152151Z 13010KT 10SM SCT040 38/19 A2980 RMK 8/500
  • MMHO: Hermosillo, Son., Mexico [40.5°C, 104.9°F]
    MMHO 152340Z 25013KT 10SM SKC 41/13 A2969 RMK SLP048 57021 965 HZY
  • KPEQ: Pecos, Pecos Municipal Airport, TX, United States [40.4°C, 104.7°F]
    KPEQ 152235Z AUTO 18010KT 10SM 42/11 A2972 RMK AO2 T04160114
  • KGYR: Goodyear Municipal, AZ, United States [40.4°C, 104.7°F]
    KGYR 152347Z 26013KT 10SM SKC 44/03 A2962
  • KAPY: Zapata, TX, United States [40.4°C, 104.7°F]
    KAPY 152135Z AUTO 15009KT 120V190 10SM SCT085 39/17 A2978 RMK AO2 T03920168 TSNO
  • ZJHK: Haikou, China [40.4°C, 104.7°F]
    ZJHK 160000Z 18003MPS 130V220 CAVOK 30/28 Q1005 NOSIG
  • VVNB: Ha Noi, Vietnam [40.4°C, 104.7°F]
    VVNB 160030Z 08006KT 6000 SCT010 30/28 Q1003 NOSIG
  • VTUW: Nakhon Phanom, Thailand [40.4°C, 104.7°F]
    VTUW 160000Z VRB01KT 9000 NSC 30/28 Q1007 NOSIG
  • VECC: Calcutta / Dum Dum, India [40.4°C, 104.7°F]
    VECC 160030Z 17006KT 2800 HZ SCT020 BKN100 30/28 Q1002 NOSIG
  • MHTE: Tela, Honduras [40.4°C, 104.7°F]
    MHTE 152200Z 04003KT 9999 TS SCT024 FEW028CB BKN080 30/28 Q1004 A2965
  • KGTR: Golden Tri, MS, United States [40.4°C, 104.7°F]
    KGTR 152256Z VRB03KT 10SM CLR 36/22 A2991 RMK AO2 SLP134 T03560222
  • KBRO: Brownsville, TX, United States [40.4°C, 104.7°F]
    KBRO 152053Z 10011G23KT 10SM FEW043 36/22 A2982 RMK AO2 SLP097 T03560222 58014
  • MMCV: Ciudad Victoria Airport, Mexico [40.3°C, 104.5°F]
    MMCV 152140Z 02014KT 12SM SCT020TCU 39/17 A2976 RMK 8/200
  • KFTN: Carrizo Springs, TX, United States [40.3°C, 104.5°F]
    KFTN 152215Z AUTO 14009KT 100V190 10SM CLR 39/17 A2978 RMK A01
  • KCZT: Carrizo Springs, TX, United States [40.3°C, 104.5°F]
    KCZT 152115Z AUTO 11008KT 080V140 SCT080 39/17 A2978 RMK AO2 PWINO
  • KSSF: San Antonio, Stinson Municipal Airport, TX, United States [40.3°C, 104.5°F]
    KSSF 152253Z 15010KT 10SM CLR 37/20 A2977 RMK AO2 SLP065 T03720200
  • KSEQ: Sequin Randolph AFB, TX, United States [40.3°C, 104.5°F]
    KSEQ 152155Z AUTO 07012KT 10SM BKN060 BKN075 35/23 A2979 RMK AO2 SLP082 T03510227
  • MMML: Mexicali Intl Arpt, Mexico [40.2°C, 104.3°F]
    MMML 152240Z 17009KT 10SM SKC 44/02 A2960 RMK HZY
  • KTVR: Vicksburg, LA, United States [40.2°C, 104.3°F]
    KTVR 152353Z AUTO 00000KT 10SM SCT075 32/26 A2988 RMK AO2 SLP124 T03170261 10361
  • KDTS: Destin, Destin-Ft. Walton Beach Airport, FL, United States [40.2°C, 104.3°F]
    KDTS 152053Z 18006KT 10SM FEW070 32/26 A2993 RMK AO2 SLP133 T03170261 56010
  • KNMM: Meridian, Naval Air Stn, MS, United States [40.2°C, 104.3°F]
    KNMM 152056Z AUTO 18006KT 10SM SCT065 BKN090 BKN110 37/21 A2993 RMK AO2 SLP140
  • KTXW: Weslaco, TX, United States [40.1°C, 104.1°F]
    KTXW 152055Z AUTO 11013G17KT 10SM SCT060 SCT070 36/21 A2980 RMK AO2 T03650207
  • KCGZ: Casa Grande, AZ, United States [40.0°C, 104.0°F]
    KCGZ 152256Z AUTO 26010G17KT 10SM CLR 43/01 A2968 RMK AO2 SLP031 T04280006 PNO
  • KPEZ: Pleasanton, TX, United States [40.0°C, 104.0°F]
    KPEZ 152135Z AUTO 13007G15KT 10SM SCT070 SCT100 38/19 A2981 RMK AO2 T03750191


0 stations reporting sea level pressure < 950mb

0 stations reporting sea level pressure 950mb - 959mb

0 stations reporting sea level pressure 960mb - 969mb

1 station reporting sea level pressure 970mb - 979mb

  • NZCM: Williams Field, Antarctica [977.9mb, 28.87in]    
    NZCM 152355Z AUTO 11012G18KT 080V150 9999 SCT080 OVC095 M16/M26 A2886 RMK AO2 SLP779 T11651263 11149 21170 57005 $
    NZCM 152255Z AUTO 11009KT 9999 OVC085 M16/M25 A2887 RMK AO2 WSHFT 2213 SLP783 T11561253 $
    NZCM 152217Z AUTO 10014G22KT 060V130 9999 OVC075 M17/M24 A2886 RMK AO2 WSHFT 2213 SLP780 T11661244 $
    NZCM 152155Z AUTO 06014G17KT 9999 SCT060 OVC075 M17/M25 A2886 RMK AO2 PK WND 13044/2119 WSHFT 2127 SLP780 T11661249 $
    NZCM 152131Z AUTO 07010G22KT 9999 OVC060 M16/M26 A2887 RMK AO2 PK WND 13044/2119 WSHFT 2127 SLP782 T11581257 $
    NZCM 152055Z AUTO 09008G19KT 060V130 9999 OVC060 M16/M24 A2887 RMK AO2 PK WND 17039/1959 WSHFT 2038 SNB2004E2008 SLP784 T11591242 53008 $
1 station reporting sea level pressure 980mb - 989mb

  • SCRM: Teniente Rodolfo, Antarctica [983mb, 29.02in]    
    SCRM 160000Z 15004KT 1200 SHSN BKN010 M08/M10 Q0986 NOSIG
    SCRM 152300Z 07006KT 030V100 9999 SHSN BKN015 M09/M10 Q0986 NOSIG
    SCRM 152200Z 02014KT 9999 BKN030 M08/M10 Q0984 NOSIG
    SCRM 152100Z 02016KT 9999 BKN040 M08/M10 Q0983 NOSIG
7 stations reporting sea level pressure > 1055mb

  • KCWN: Cheyenne Moutain, CO, United States [1096.3mb, 32.37in]    
    KCWN 152355Z AUTO 22008KT 10SM BKN110 OVC140 25/03 A2999 RMK AO2 RAB42E54 SLP959 P0000 60000 T02450032 10288 20241 58005 $
    KCWN 152354Z AUTO 22008KT 10SM BKN110 OVC140 25/04 A2999 RMK AO2 RAB42E54 SLP959 $
    KCWN 152342Z AUTO 19007G14KT 10SM -RA SCT100 BKN120 BKN140 25/03 A2999 RMK AO2 LTG DSNT NE RAB42 SLP959 $
    KCWN 152255Z AUTO 15008KT 10SM SCT120 25/03 A2999 RMK AO2 LTG DSNT SW SLP959 T02480034 $
    KCWN 152155Z AUTO 21003KT 10SM BKN110 25/03 A3001 RMK AO2 SLP963 T02530033 $
    KCWN 152055Z AUTO 14014G19KT 10SM BKN120 27/04 A3000 RMK AO2 LTG DSNT W-NW SLP957 T02710035 57015 $
  • MMAS: Aguascalientes, Ags., Mexico [1099.1mb, 32.45in]    
    MMAS 152342Z 05012KT 10SM SCT030 31/01 A3003 RMK SLP991 5//// 9// 8/100
  • MMLO: Del Bajio / Leon, Mexico [1099.8mb, 32.47in]    
    MMLO 152346Z 03015KT 10SM SCT030 31/06 A2996 RMK SLP997 57014 963 8/500
    MMLO 152046Z 36016KT 10SM BKN030 32/05 A3001 RMK SLP998 57024 962 8/500
  • MMMM: Morelia New, Mexico [1099.6mb, 32.46in]    
    MMMM 152345Z 06006KT 8SM SCT030 30/06 A3000 RMK SLP996 57017 954 8/200
  • MMTO: Toluca / Jose Maria, Mexico [1099.9mb, 32.47in]    
    MMTO 152045Z 07015KT 8SM SCT020 25/02 A3024 RMK SLP999 57017 991 8/200 HZY
  • PACX: UNKNOWN, [1082.6mb, 31.96in]    
    PACX 152356Z AUTO 20008KT 10SM CLR 22/04 A3010 RMK AO2 SLP818 T02170039 10217 20156 58008
    PACX 152256Z AUTO 22009KT 10SM CLR 21/06 A3011 RMK AO2 SLP821 T02060056
    PACX 152156Z AUTO 21008KT 10SM CLR 20/06 A3012 RMK AO2 SLP824 T02000061
    PACX 152056Z AUTO 22006KT 10SM CLR 19/06 A3012 RMK AO2 SLP826 T01890061 58010
  • PFTO: UNKNOWN, [1083.0mb, 31.97in]    
    PFTO 152356Z AUTO 33008KT 10SM CLR 22/04 A3007 RMK AO2 SLP823 T02170039 10222 20172 56007 $
    PFTO 152256Z AUTO VRB04KT 6SM HZ FEW070 22/04 A3007 RMK AO2 SLP824 T02170039 $
    PFTO 152156Z AUTO VRB05KT 9SM SCT070 21/04 A3008 RMK AO2 SLP827 T02110044 $
    PFTO 152056Z AUTO VRB05KT 10SM FEW065 21/04 A3009 RMK AO2 SLP830 T02060044 58011 $
0 stations reporting sea level pressure 1050-1054mb

0 stations reporting sea level pressure 1045-1049mb

0 stations reporting sea level pressure 1040-1044mb

2 stations reporting sea level pressure 1035-1039mb

  • FDMY: Mayiwane, Swaziland [1036mb, 30.59in]    
    FDMY 152300Z AUTO 02001KT //// // ////// 13/12 Q1036
    FDMY 152200Z AUTO 00000KT //// // ////// 14/13 Q1035
  • SLLP: La Paz / Alto, Bolivia [1038mb, 30.65in]    
    SLLP 160000Z 04004KT 9999 NSC 07/M04 Q1038
    SLLP 152300Z 29006KT 9999 NSC 10/M05 Q1037
    SLLP 152200Z 27008KT 9999 FEW017 12/M08 Q1037
    SLLP 152100Z 29005KT 9999 FEW020 15/M08 Q1037


0 stations reporting 3-hourly pressure fall of 10mb or greater

0 stations reporting 3-hourly pressure fall of 5mb to 9.9mb

21 stations reporting 3-hourly pressure rise of 5mb to 9.9mb

  • CAHR: Harrington, PE, Canada [6.2mb]
    CAHR 152100Z AUTO 36014KT 13/12 RMK AO1 1PAST HR 0008 PK WND 35023/2010 SLP097 P0008 T01260118 50056
    CAHR 152200Z AUTO 01011KT 13/11 RMK AO1 2PAST HR 1007 PK WND 00019/2101 SLP099 P0001 T01270111 50058
    CAHR 152300Z AUTO 36008KT 12/11 RMK AO1 3PAST HR 3009 SLP107 P0001 T01240110 50062
    CAHR 160000Z AUTO 34006KT 13/11 RMK AO1 3020 SLP117 T01250109 50062
  • CPST: Strathmore Agdm, AB, Canada [6.3mb]
    CPST 152300Z AUTO 28007KT 08/06 RMK AO1 9PAST HR M PK WND 18021/2238 P0023 T00820063 50063
  • CWAR: Argentia, Nfld, Canada [9.5mb]
    CWAR 152100Z AUTO 12016G24KT 15/ RMK AO1 7PAST HR 8044 PK WND 12024/2053 SLP088 P0014 T0151 50095
  • CWAV: Sundre, Canada [6.5mb]
    CWAV 160000Z AUTO 23005KT 07/05 RMK AO1 2PAST HR 8002 PK WND 28018/2313 SLP071 P0009 T00680054 50065
  • CWBK: Caribou Point, Canada [9.1mb]
    CWBK 152100Z AUTO 34013G19KT 14/13 RMK AO1 2PAST HR 5000 PK WND 34019/2043 SLP081 P0009 T01360129 50068
    CWBK 152200Z AUTO 35013KT 13/12 RMK AO1 3PAST HR 3014 PK WND 00023/2110 SLP093 P0009 T01320124 50091
  • CWEP: East Point, P. E. I, Canada [9.7mb]
    CWEP 152100Z AUTO 35020KT 13/13 RMK AO1 1PAST HR 5004 PK WND 35024/2054 SLP079 P0012 T01310128 50071
    CWEP 152200Z AUTO 35018KT 13/12 RMK AO1 2PAST HR 3008 PK WND 00025/2143 SLP087 P0005 T01260117 50083
    CWEP 152300Z AUTO 35015KT 13/12 RMK AO1 4PAST HR 3019 PK WND 35022/2224 SLP095 P0005 T01260117 50097
  • CWGR: Iles-De-La-Madelein, Canada [7.1mb]
    CWGR 152200Z AUTO 36015KT 11/10 RMK AO1 0PAST HR 3007 PK WND 35020/2103 SLP092 P0008 T01050104 50062
    CWGR 152300Z AUTO 36011KT 12/10 RMK AO1 5PAST HR 1008 PK WND 00019/2211 SLP094 P0002 T01170104 50067
    CWGR 160000Z AUTO 34011KT 12/11 RMK AO1 5PAST HR 3010 SLP099 P0002 T01190106 50071
  • CWJD: Grand Rapids, Man., Canada [5.3mb]
    CWJD 152100Z AUTO 07004KT 20/16 RMK AO1 8014 SLP025 T01990157 50053
    CWJD 152200Z AUTO 08006KT 19/14 RMK AO1 6017 SLP022 T01860138 50053
    CWJD 152300Z AUTO 11005KT 18/14 RMK AO1 6017 SLP016 T01830137 50053
    CWJD 160000Z AUTO 09005KT 18/14 RMK AO1 8017 SLP006 T01820138 50053
  • CWMM: P. Meadows Coastal Stn, Canada [5.1mb]
    CWMM 152200Z AUTO 07002KT 12/10 RMK AO1 3PAST HR 1012 SLP179 P0001 T01180098 50050
    CWMM 152300Z AUTO 07003KT 11/09 RMK AO1 1PAST HR 1008 SLP181 P0000 T01100091 50051
    CWMM 160000Z AUTO 01002KT 12/09 RMK AO1 1006 SLP181 T01170091 50051
  • CWRA: Cape Race, Nfld, Canada [5.3mb]
    CWRA 152100Z AUTO 18010G15KT 09/09 RMK AO1 3PAST HR 6030 PK WND 15017/2002 SLP125 P0021 T00930091 50053
    CWRA 152200Z AUTO 19015KT 09/09 RMK AO1 6030 PK WND 19019/2104 SLP117 T00910089 50053
    CWRA 152300Z AUTO 20011KT 09/09 RMK AO1 6016 PK WND 18020/2200 SLP115 T00870086 50053
    CWRA 160000Z AUTO 21012KT 09/09 RMK AO1 6014 SLP111 T00940093 50053
  • CWSD: Summerside, Canada [7.9mb]
    CWSD 152100Z AUTO 02009KT 14/14 RMK AO1 3PAST HR 1007 SLP105 P0001 T01360136 50079
    CWSD 152200Z AUTO 01007KT 14/14 RMK AO1 3005 SLP109 T01370137 50079
    CWSD 152300Z AUTO 35006KT 14/14 RMK AO1 3010 SLP114 T01360136 50079
    CWSD 160000Z AUTO 35004KT 13/13 RMK AO1 3016 SLP121 T01290128 50079
  • CWVN: Val Marie Southeast, Sask, Canada [5.1mb]
    CWVN 160000Z AUTO 29018G24KT 13/11 RMK AO1 1PAST HR 3015 PK WND 26047/2319 SLP044 P0020 T01290107 50051
  • CXFR: Fairview Agdm, AB, Canada [9.9mb]
    CXFR 152100Z AUTO 01009KT 08/07 RMK AO1 7PAST HR M PK WND 35017/2039 P0007 T00810068 50083
    CXFR 152200Z AUTO 01007KT 08/07 RMK AO1 9PAST HR M P0004 T00830072 50092
    CXFR 152300Z AUTO 01006KT 08/07 RMK AO1 6PAST HR M P0002 T00820069 50099
    CXFR 160000Z AUTO 36005KT 08/07 RMK AO1 T00840070 50099
  • CXMM: Fort McMurray CS, Alta., Canada [6.7mb]
    CXMM 152100Z AUTO 01005KT 12/11 RMK AO1 0PAST HR 3002 SLP045 P0012 T01190107 50052
    CXMM 152200Z AUTO 02003KT 13/11 RMK AO1 2PAST HR 1002 SLP044 P0005 T01250112 50064
    CXMM 152300Z AUTO 01005KT 13/11 RMK AO1 3PAST HR 1003 SLP046 P0001 T01250112 50067
    CXMM 160000Z AUTO 35005KT 13/11 RMK AO1 3005 SLP050 T01270106 50067
  • CXTD: Tracadie, NS, Canada [5.1mb]
    CXTD 160000Z AUTO 34012G17KT 12/12 RMK AO1 3PAST HR 3018 PK WND 24021/2330 SLP095 P0005 T01190116 50051
  • CXTP: Terra Nova National Park CS, Nfld., Canada [7.5mb]
    CXTP 152300Z AUTO 14006KT 14/14 RMK AO1 8PAST HR 8047 SLP056 P0007 T01380137 50062
    CXTP 160000Z AUTO 19005KT 14/14 RMK AO1 3PAST HR 6050 SLP048 P0005 T01380138 50075
  • CZPS: Prentiss, AB, Canada [5.6mb]
    CZPS 160000Z AUTO 30008KT 08/07 RMK AO1 4PAST HR M P0005 T00820070 50056
  • CZSP: St Peters, PE, Canada [9.9mb]
    CZSP 152100Z AUTO 36011G18KT 12/12 RMK AO1 9PAST HR 3013 PK WND 00020/2024 SLP100 P0011 T01240117 50074
    CZSP 152200Z AUTO 36008KT 12/12 RMK AO1 0PAST HR 2017 SLP104 P0008 T01240117 50094
    CZSP 152300Z AUTO 36006KT 12/12 RMK AO1 5PAST HR 1014 SLP105 P0002 T01240117 50099
  • K1NM: November (grass Range), MT, United States [5.4mb]
    K1NM 152355Z AUTO 31017G23KT 10SM BKN060 BKN100 13/07 A2973 RMK AO2 PK WND 29029/12 RAB23E36 SLP064 P0000 60015 T01290067 10249 20123 51054 $
  • K1OM: Oscar (roy), MT, United States [6.1mb]
    K1OM 152355Z AUTO 30022G34KT 10SM OVC075 12/07 A2972 RMK AO2 PK WND 30035/09 RAE2258 SLP067 P0000 60009 T01170074 10244 20104 51061 $
  • KLWT: Lewistown, Lewistown Municipal Airport, MT, United States [5.8mb]
    KLWT 152354Z AUTO 30005KT 10SM FEW041 OVC060 11/07 A2982 RMK AO2 RAB2256E36 SLP087 P0001 60009 T01060072 10250 20100 51058
7 stations reporting 3-hourly pressure rise of 10mb or greater

  • CPST: Strathmore Agdm, AB, Canada [11.0mb]
    CPST 160000Z AUTO 27009KT 08/06 RMK AO1 7PAST HR M P0018 T00760061 50110
  • CWAR: Argentia, Nfld, Canada [11.9mb]
    CWAR 152200Z AUTO 14019G28KT 16/ RMK AO1 4PAST HR 6044 PK WND 13029/2146 SLP080 P0009 T0158 50119
    CWAR 152300Z AUTO 16028G37KT 15/ RMK AO1 6032 PK WND 15037/2252 SLP074 T0151 50119
    CWAR 160000Z AUTO 16022G27KT 15/ RMK AO1 6015 PK WND 15032/2304 SLP073 T0146 50119
  • CWBK: Caribou Point, Canada [11.8mb]
    CWBK 152300Z AUTO 00000KT 13/12 RMK AO1 8PAST HR 3021 SLP099 P0007 T01300119 50109
    CWBK 160000Z AUTO 00000KT 13/12 RMK AO1 9PAST HR 1029 SLP110 P0004 T01310117 50118
  • CWEP: East Point, P. E. I, Canada [10.3mb]
    CWEP 160000Z AUTO 34015KT 13/11 RMK AO1 6PAST HR 2025 PK WND 34019/2354 SLP103 P0002 T01250112 50103
  • CXNP: Nappan (auto), NS, Canada [17.8mb]
    CXNP 152100Z AUTO 01008KT 12/12 RMK AO1 1PAST HR 1012 SLP107 P0012 T01230115 50171
    CXNP 152200Z AUTO 34005KT 13/12 RMK AO1 5PAST HR 3012 SLP113 P0002 T01290123 50176
    CXNP 152300Z AUTO 33004KT 13/12 RMK AO1 2PAST HR 3013 SLP119 P0001 T01280120 50178
    CXNP 160000Z AUTO 02002KT 13/12 RMK AO1 1016 SLP123 T01290120 50178
  • CZDB: Debert, NS, Canada [15.1mb]
    CZDB 152100Z AUTO 35010G18KT 13/12 RMK AO1 1PAST HR 3006 PK WND 34018/2053 SLP090 P0012 T01340118 50118
    CZDB 152200Z AUTO 02004KT 13/12 RMK AO1 2PAST HR 3010 PK WND 01018/2115 SLP094 P0005 T01300119 50130
    CZDB 152300Z AUTO 34004KT 13/12 RMK AO1 1PAST HR 3019 SLP106 P0008 T01300115 50151
    CZDB 160000Z AUTO 35006KT 13/11 RMK AO1 3022 SLP112 T01260109 50151
  • CZSP: St Peters, PE, Canada [10.5mb]
    CZSP 160000Z AUTO 36007KT 12/11 RMK AO1 6PAST HR 3013 SLP112 P0002 T01230114 50105


0 stations reporting heavy snow

1 station reporting any sleet

  • KGRF: Fort Lewis, WA, United States
    KGRF 152055Z 26016G20KT 4SM RAPL FEW024 BKN035 BKN080 14/07 A3009 RMK AO2A WSHFT 52 SLP194 60008 T01410069 52014 $
0 stations reporting any freezing rain

56 stations reporting heavy rain

  • CWWU: Ingenika Point, Canada
    CWWU 152225Z 16009G23KT 130V190 1 1/2SM +RA BR BKN013 OVC029 14/14 A2981 RMK FG3SC3SC2 SLP095
  • CYKY: Kindersley, Sask., Canada
    CYKY 160037Z 32006KT 250V330 8SM +SHRA OVC044 12/09 A2964 RMK SC8 CB EMBDD SLP046 DENSITY ALT 2800FT
  • CYQX: Gander Int. Airport, Nfld., Canada
    CYQX 152232Z 13007KT 3SM +RA BR BKN005 OVC035 16/16 A2973 RMK ST5NS3 SLP072 DENSITY ALT 1000FT
    CYQX 152237Z CCA 13008KT 2 1/2SM +RA BR BKN004 OVC032 16/16 A2973 RMK FG2ST3NS3 SLP072 DENSITY ALT 900FT
  • CYZW: Teslin, Y. T., Canada
    CYZW 152155Z 36017G25KT 12SM +SHRA OVC074 10/06 A3005 RMK AC8 SLP198
    CYZW 152200Z 36015G22KT 12SM +SHRA FEW062 OVC067 10/06 A3004 RMK SC2AC6 SLP197
  • EGOS: Shawbury, United Kingdom
    EGOS 152220Z AUTO 16006KT 4500 +RA FEW013/// BKN054/// 11/10 Q0997
    EGOS 152250Z AUTO 16008KT 2200 +RA OVC034/// 11/10 Q0997
    EGOS 152350Z AUTO 21004KT 5000 +RA FEW015/// OVC047/// 11/10 Q0997
  • EGPD: Aberdeen / Dyce, United Kingdom
    EGPD 152120Z AUTO 31006KT 3300 +RA BKN005/// BKN010/// OVC033/// //////TCU 12/11 Q0995 REDZ
  • EGQA: Tain Range, United Kingdom
    EGQA 152350Z AUTO 30006KT 1700 +RA OVC004/// 11/11 Q0996
  • EGQK: Kinloss, United Kingdom
    EGQK 152050Z AUTO 03009KT 3900 +RA BKN002/// 11/11 Q0997
  • EGSY: Yorkshire and Humberside, Sheffield City, United Kingdom
    EGSY 152350Z AUTO 23015KT 3300 +RA BKN016/// 13/11 Q0999
  • EHMG: Platform L9-FF-1, Netherlands
    EHMG 152325Z AUTO 23029KT 3000 +SHRA FEW013 FEW015CB SCT016 BKN030 12/10 Q1003
  • ESOH: Hagfors AP, Sweden
    ESOH 152150Z AUTO 11006KT 040V170 1700 +RA ///040/// 12/10 Q1005
  • K1MM: Mike (moore), MT, United States
    K1MM 152155Z AUTO 34012G21KT 10SM +RA FEW030 SCT060 SCT080 BKN110 OVC140 10/08 A2974 RMK AO2 PK WND 31035/17 LTG DSNT E-SE RAB14 PRESRR SLPNO P0009 T01030077 $
  • KARV: Minocqua / Woodruff, WI, United States
    KARV 160015Z AUTO 17007KT 7SM +RA SCT022 BKN039 OVC100 17/15 A3000 RMK AO2 T01700147
  • KBFI: Seattle, Seattle Boeing Field, WA, United States
    KBFI 152344Z VRB05G22KT 2 1/2SM +RA FEW026 SCT040 BKN070 13/08 A3010 RMK AO2 RAB33 P0008 T01330083
  • KBKV: Brooksville, Hernando County Airport, FL, United States
    KBKV 152353Z 23013KT 3SM +RA BKN032 OVC041 25/ A2998 RMK AO2 RAB46 SLP149 P0005 60005 T0250 10328 20250 53004 $
  • KBVN: Albion, Albion Municipal Airport, NE, United States
    KBVN 152215Z AUTO 16017G22KT 7SM +RA SCT029 BKN037 OVC080 26/23 A2969 RMK AO2 LTG DSNT ALQDS P0004 T02620228
  • KDNL: Augusta, Daniel Field, GA, United States
    KDNL 152301Z AUTO 36008G17KT 310V040 1 1/2SM +RA SCT029 OVC070 27/21 A2999 RMK AO2 LTG DSNT E AND SE RAB2254 PRESRR P0012 T02720206
    KDNL 152303Z AUTO VRB06G17KT 1SM +RA BKN025 OVC070 27/21 A2999 RMK AO2 LTG DSNT E AND SE RAB2254 PRESRR P0015 T02720206
    KDNL 152310Z AUTO 19016G23KT 1/2SM VCTS +RA BKN015 OVC070 26/21 A2999 RMK AO2 LTG DSNT NE-SE RAB2254 P0027 T02610211
  • KEAU: Eau Claire, WI, United States
    KEAU 152356Z 12009KT 2 1/2SM +RA SCT049 BKN060 OVC095 18/16 A2992 RMK AO2 SLP131 P0008 60013 T01830156 10211 20183 56013
  • KEET: Alabaster, Shelby County Airport, AL, United States
    KEET 152153Z AUTO 15006G20KT 1 3/4SM +RA FEW034 FEW043 OVC065 31/22 A2995 RMK AO2 LTG DSNT E AND W AND NW RAB44 SLP132 P0011 T03110222
    KEET 152203Z AUTO 28012KT 3/4SM +RA SCT036 BKN065 OVC090 28/23 A2994 RMK AO2 LTG DSNT E AND NW P0018 T02780228
  • KGGW: Glasgow, Glasgow Intl Arpt, MT, United States
    KGGW 160019Z AUTO 29028G46KT 1 3/4SM VCTS +RA BR BKN070 OVC110 17/14 A2955 RMK AO2 PK WND 29046/0015 LTG DSNT SE AND S RAB08 PRESRR P0000 T01670144 $
    KGGW 160024Z AUTO 30026G49KT 3/4SM VCTS +RA BR FEW046 OVC070 16/14 A2957 RMK AO2 PK WND 30049/0020 LTG DSNT SE AND S RAB08 PRESRR P0003 T01610139 $
  • KGNV: Gainesville, Gainesville Regional Airport, FL, United States
    KGNV 152249Z 16013KT 3/4SM VCTS +RA BR SCT021 BKN037 BKN050 25/23 A3000 RMK AO2 WSHFT 2215 LTG DSNT ALQDS RAB45 TSB31E46 P0003 $
    KGNV 152253Z 16011KT 1/2SM +RA FG SCT019 BKN037 BKN050 24/23 A3000 RMK AO2 WSHFT 2215 LTG DSNT SE-W RAB45 TSB31E46 SLP157 P0019 T02440233 $
  • KGPH: Clay County, Mo, United States
    KGPH 152355Z AUTO 09005G17KT 3SM +RA SCT036 SCT048 BKN070 27/22 A2983 RMK AO2 P0002
  • KGPI: Kalispell/Glacier Park, MT, United States
    KGPI 152312Z AUTO 26019G41KT 1 3/4SM +RA BR SCT024 SCT032 BKN055 05/03 A2992 RMK AO2 PK WND 25041/2307 WSHFT 2258 LTG DSNT SE P0002 T00500033
  • KGYL: Glencoe, Glencoe Municipal Airport, MN, United States
    KGYL 152135Z AUTO 13008KT 1 1/2SM +RA BKN008 BKN016 OVC021 18/18 A2985 RMK AO2 P0017 T01800175
  • KHCD: Hutchinson, MN, United States
    KHCD 152055Z AUTO 14008KT 3SM +RA BKN008 OVC013 18/17 A2986 RMK AO2 P0035 60103 T01800166 TSNO
    KHCD 152155Z AUTO 13011KT 7SM +RA SCT006 SCT012 OVC050 19/17 A2984 RMK AO2 P0021 T01860172 TSNO
  • KHYR: Hayward, Hayward Municipal Airport, WI, United States
    KHYR 152336Z AUTO 17005KT 2SM +RA BR BKN065 OVC080 16/14 A2995 RMK AO2 P0011 T01610144
  • KLEE: Leesburg, Leesburg Regional Airport, FL, United States
    KLEE 152143Z 00000KT 1SM +RA BR BKN026 OVC085 24/23 A3000 RMK AO2 PK WND 21035/2105 LTG DSNT ALQDS RAB2058 TSE37 P0145 T02390233
  • KLGC: La Grange, Callaway Airport, GA, United States
    KLGC 152235Z AUTO 31012KT 5SM +RA SCT033 BKN065 OVC075 33/21 A2995 RMK AO2 T03310208
  • KLJF: Litchfield, Litchfield Municipal Airport, MN, United States
    KLJF 152135Z AUTO 14010KT 4SM +RA BKN008 OVC014 17/17 A2983 RMK AO2
  • KLVN: Minneapolis, Airlake Airport, MN, United States
    KLVN 152355Z AUTO 10007KT 2SM +RA SCT006 BKN013 OVC055 18/17 A2985 RMK AO2 VIS 1 1/4V5 P0003 LTG DSNT S
  • KLXL: Little Falls, MN, United States
    KLXL 152315Z AUTO 11009G16KT 3SM +RA OVC009 16/08 A2981 RMK AO2 P0004
  • KMGG: Maple Lake, Maple Lake Municipal Airport, MN, United States
    KMGG 152055Z AUTO 11007KT 2SM +RA OVC006 18/16 A2988 RMK AO2 P0032 60076 T01750158
  • KMHK: Manhattan, Manhattan Municipal Airport, KS, United States
    KMHK 152300Z 24018G40KT 1 1/2SM VCTS +RA FEW038 BKN060 OVC085 23/18 A2982 RMK AO2 PK WND 24040/2253 LTG DSNT ALQDS RAB2255 P0011 T02280178
  • KMIC: Minneapolis, Crystal Airport, MN, United States
    KMIC 152153Z 13010G17KT 2SM +RA BR BKN011 BKN016 OVC024 17/16 A2987 RMK AO2 SLP112 P0019 T01720161
    KMIC 160021Z 11005KT 1 3/4SM +RA BR SCT042 BKN055 OVC080 17/16 A2981 RMK AO2 P0010 T01720161
  • KOGB: Orangeburg, Orangeburg Municipal Airport, SC, United States
    KOGB 152145Z AUTO 05018G29KT 3/4SM VCTS +RA BR SCT031 BKN065 OVC085 24/22 A2997 RMK AO2 PK WND 05029/2141 WSHFT 2115 LTG DSNT NW RAB32 P0022 T02390217
    KOGB 152155Z AUTO 10007G26KT 070V140 2SM +RA SCT038 BKN048 OVC090 26/21 A2998 RMK AO2 P0003 T02560211
  • KOVL: Olivia, Olivia Regional Airport, MN, United States
    KOVL 152135Z AUTO 12005KT 1SM +RA OVC007 18/17 A2981 RMK AO2 P0038
  • KPNM: Princeton, MN, United States
    KPNM 152126Z AUTO 13010G15KT 7SM +RA SCT007 BKN014 OVC036 17/16 A2989 RMK AO2
    KPNM 152145Z AUTO 13011G15KT 7SM +RA SCT009 BKN030 OVC034 17/16 A2989 RMK AO2
    KPNM 152247Z AUTO 13010KT 7SM +RA BKN008 BKN014 OVC020 17/16 A2988 RMK AO2
    KPNM 152323Z AUTO 12007KT 10SM +RA SCT008 BKN016 OVC030 17/16 A2986 RMK AO2
  • KRGK: Red Wing, Red Wing Municipal Airport, MN, United States
    KRGK 152255Z AUTO 11008KT 2SM +RA SCT018 BKN030 OVC070 A2988 RMK AO2 LTG DSNT SE
  • KRNH: New Richmond, WI, United States
    KRNH 152335Z AUTO 13007KT 5SM +RA SCT023 BKN049 OVC060 16/15 A2989 RMK AO2 P0008 T01630148
  • KROS: Rush City, Rush City Regional Airport, MN, United States
    KROS 152255Z AUTO 12008KT 4SM +RA SCT009 BKN024 OVC030 16/14 A2989 RMK AO2 P0027 T01550138
    KROS 152315Z AUTO 12008KT 4SM +RA SCT013 BKN018 OVC033 16/14 A2989 RMK AO2 P0007 T01550138
    KROS 152355Z AUTO 11007KT 3SM +RA SCT009 BKN020 OVC028 16/14 A2988 RMK AO2 LTG DSNT SE AND S P0021 60057 T01550140 10220 20155
  • KRPD: Rice Lake, Rice Lake Regional-Carl's Field Airport, WI, United States
    KRPD 152315Z AUTO 12012KT 5SM +RA SCT037 SCT045 OVC050 17/15 A2995 RMK AO2 P0005 T01660146
  • KRZN: Siren, Burnett County Airport, WI, United States
    KRZN 152235Z AUTO 15007KT 4SM +RA BKN013 OVC020 16/15 A2993 RMK AO2 P0009 T01580145
    KRZN 152355Z AUTO 11003KT 4SM +RA SCT006 BKN012 OVC019 16/15 A2991 RMK AO2 P0018 60046 T01560147 10231 20155
  • KSTC: St Cloud, St Cloud Regional Airport, MN, United States
    KSTC 152121Z 14010KT 2SM +RA BR BKN008 BKN012 OVC024 17/16 A2985 RMK AO2 P0008 T01720161
    KSTC 152128Z 13011G20KT 1 1/2SM +RA BR BKN007 BKN014 OVC022 17/16 A2985 RMK AO2 P0014 T01720161
  • KSTP: St. Paul, St. Paul Downtown Holman Field, MN, United States
    KSTP 152115Z 13011KT 2SM R32/4500VP6000FT +RA BR SCT044 BKN055 OVC075 18/16 A2990 RMK AO2 P0009 T01780161
  • KUBE: Cumberland, WI, United States
    KUBE 152315Z AUTO 12009KT 5SM +RA OVC046 17/15 A2993 RMK AO2 P0004
    KUBE 160015Z AUTO 13009KT 4SM +RA OVC044 17/15 A2991 RMK AO2 P0004
  • KVDF: Tampa, Vandenberg Airport, FL, United States
    KVDF 152355Z AUTO 23004G09KT 2SM +RA SCT017 OVC025 25/23 A3000 RMK AO2
    KVDF 160015Z AUTO 24003KT 2 1/2SM +RA SCT021 BKN037 OVC080 25/24 A3000 RMK AO2 P0001
  • LZPP: Piestany, Slovakia
    LZPP 160030Z AUTO 19003KT 160V230 2200 +RA 17/17 Q1010
  • MHLC: La Ceiba Airport, Honduras
    MHLC 152100Z 36005KT 3000 +RA SCT030TCU SCT035CB BKN080 30/26 Q1006 A2971 NOSIG
  • MRLB: Liberia, Costa Rica
    MRLB 152246Z COR VRB04KT 1000 +RA BKN025 25/25 A2981
    MRLB 152246Z VRB04KT 1000 +RA BKN025 25/25 A2981
    MRLB 152300Z VRB04KT 1000 +RA OVC015 25/25 A2981
    MRLB 152304Z 28011KT 0500 +RA OVC020 24/24 A2983
  • MROC: Juan Santamaria, Costa Rica
    MROC 152340Z 03003KT 340V060 1500 +RA BR SCT008 BKN015 20/19 A3004 NOSIG
  • MSLP: El Salvador Intl. Airport / Comalapa, El Salvador
    MSLP 152119Z 15004KT 110V190 3000 +RA SCT010 BKN018 FEW037CB OVC043 26/26 Q1006
    MSLP 152250Z 07006KT 3000 +RA SCT010 FEW037CB BKN040 26/26 Q1006 A2971 NOSIG RMK CB N SW DSTN CB E
    MSLP 152300Z 07006KT 3000 +RA SCT010 FEW037CB BKN040 26/26 Q1006 A2971 NOSIG RMK CB N SW DSTN CB E
    MSLP 152338Z 08004KT 050V150 3000 +RA SCT010 BKN030 FEW037CB 25/25 Q1006
    MSLP 152344Z 06005KT 3000 +RA FEW006 BKN011 OVC014 FEW033CB 25/25 Q1006
    MSLP 160000Z VRB02KT 8000 3000NE +RA FEW004 BKN008 OVC011 FEW033CB Q1006 A2972
  • MUHA: Habana, Cuba
    MUHA 152250Z 08010KT 4000 1500SW +RA FEW012CB BKN020 25/24 Q1015
  • SBRF: Recife Aeroporto, Brazil
    SBRF 152200Z 20006KT 2000 +RA BR SCT006 BKN010 OVC040 23/22 Q1015
  • SKPE: Pereira / Matecana, Colombia
    SKPE 152130Z 14008KT 4000 +RA BKN012 BKN070 21/19 Q1017
  • TFFR: Le Raizet, Guadeloupe, Guadeloupe
    TFFR 152230Z AUTO 15012KT 110V190 9999 +RA FEW022/// SCT028/// BKN092/// ///CB 26/23 Q1015
  • YSNF: Norfolk Island Airport, Australia
    YSNF 160030Z AUTO 31012G24KT 2200 +RA SCT013 BKN020 BKN033 18/16 Q1007
4 stations reporting unknown precipitation type

  • KFWB: Branson West, MO, United States
    KFWB 152055Z AUTO VRB04G11KT 10SM UP CLR 32/21 A2995 RMK AO2
    KFWB 152115Z AUTO 17007KT 140V210 10SM UP CLR 32/22 A2994 RMK AO2
    KFWB 152135Z AUTO VRB04G10KT 10SM UP CLR 32/22 A2994 RMK AO2
    KFWB 152155Z AUTO VRB06KT 10SM UP CLR 32/22 A2993 RMK AO2
    KFWB 152215Z AUTO VRB03G12KT 9SM UP CLR 31/22 A2993 RMK AO2
    KFWB 152235Z AUTO VRB06G13KT 10SM UP CLR 31/22 A2992 RMK AO2
    KFWB 152255Z AUTO 12008G14KT 10SM UP FEW043 31/23 A2992 RMK AO2
    KFWB 152315Z AUTO VRB04G10KT 10SM UP FEW042 31/23 A2992 RMK AO2
    KFWB 152335Z AUTO VRB04G10KT 10SM UP CLR 30/23 A2992 RMK AO2
    KFWB 152355Z AUTO 12007G12KT 10SM UP CLR 30/23 A2992 RMK AO2
    KFWB 160015Z AUTO 12005G12KT 10SM UP CLR 30/23 A2992 RMK AO2
  • KJYG: St. James, St. James Municipal Airport, MN, United States
    KJYG 152135Z AUTO 13007KT 10SM UP FEW048 BKN080 OVC095 21/20 A2981 RMK AO2
  • KMLP: Mullan Pass, Mullan Pass Vor, ID, United States
    KMLP 152046Z AUTO 22008G15KT 200V260 8SM VCTS UP FEW004 BKN008 OVC016 02/00 A2992 RMK AO2 LTG DSNT W UPE05B36SNB05E22 P0001 T00170000
  • PAPO: Point Hope, Point Hope Airport, AK, United States
    PAPO 152153Z AUTO 17017KT 1/2SM UP FG OVC003 02/00 A3021 RMK AO2 UPB47 P0000 FZRANO
    PAPO 152156Z AUTO 17015KT 1/2SM UP FG OVC003 02/00 A3021 RMK AO2 UPB47 SLP228 P0000 T00170000 FZRANO
    PAPO 152232Z AUTO 17016KT 1SM UP BR OVC003 02/00 A3021 RMK AO2 P0000 FZRANO
    PAPO 152256Z AUTO 17014G21KT 1SM UP BR OVC003 02/00 A3021 RMK AO2 UPE34B50 SLP227 P0000 T00170000 FZRANO
    PAPO 152307Z AUTO 17015G20KT 3/4SM UP BR OVC003 02/00 A3021 RMK AO2 P0000 FZRANO
    PAPO 152332Z AUTO 18015KT 1SM UP BR OVC003 02/00 A3021 RMK AO2 P0000 FZRANO
    PAPO 152339Z AUTO 17017KT 1/2SM UP FG OVC003 02/00 A3021 RMK AO2 P0000 FZRANO
    PAPO 152356Z AUTO 17018KT 3/4SM UP BR OVC003 02/00 A3021 RMK AO2 SLP227 P0000 60000 T00170000 10033 20011 57000 FZRANO
    PAPO 160025Z AUTO 17013KT 1SM UP BR OVC003 02/01 A3021 RMK AO2 P0000 FZRANO
    PAPO 160039Z AUTO 17015KT 3/4SM UP BR OVC003 02/00 A3021 RMK AO2 P0000 FZRANO


0 stations reporting ice accretion in the past 1 hour

0 stations reporting ice accretion in the past 3 hours

0 stations reporting ice accretion in the past 6 hours

0 stations reporting hourly snow depth increase (SNINCR) of 3+"

0 stations reporting hourly snow depth increase (SNINCR) of 2"

0 stations reporting hourly snow depth increase (SNINCR) of 1"

0 stations reporting hourly (melted) precip total of 3" or greater

0 stations reporting hourly (melted) precip total of 2-2.99"

2 stations reporting hourly (melted) precip total of 1-1.99"

  • KLEE: Leesburg, Leesburg Regional Airport, FL, United States [1.45in]
    KLEE 152129Z 20003KT 1/2SM +TSRA FG VV017 24/23 A3001 RMK AO2 PK WND 21035/2105 LTG DSNT ALQDS RAB2058 P0119 T02390228
    KLEE 152143Z 00000KT 1SM +RA BR BKN026 OVC085 24/23 A3000 RMK AO2 PK WND 21035/2105 LTG DSNT ALQDS RAB2058 TSE37 P0145 T02390233
    KLEE 152147Z 34004KT 2SM -TSRA BR BKN030 OVC090 24/23 A2999 RMK AO2 PK WND 21035/2105 LTG DSNT ALQDS RAB2058 TSE37B46 P0145
    KLEE 152153Z 00000KT 6SM -TSRA BR SCT036 BKN080 OVC100 24/23 A2999 RMK AO2 PK WND 21035/2105 LTG DSNT ALQDS RAB2058 TSE37B46 SLP154 P0145 T02390233
  • KOFK: Norfolk, Stefan Memorial Airport, NE, United States [1.35in]
    KOFK 152348Z AUTO 1SM +TSRA VV020 21/18 A2974 RMK AO2 PK WND 26044/2327 WSHFT 2317 LTG DSNT ALQDS P0117 T02060178
    KOFK 152356Z AUTO 12013G18KT 1 3/4SM +TSRA BKN026 OVC070 19/16 A2972 RMK AO2 PK WND 26044/2327 WSHFT 2317 LTG DSNT ALQDS SLP054 P0135 60135 T01890161 10283 20189 55002
7 stations reporting hourly (melted) precip total of 0.5-0.99"

  • KBIE: Beatrice Municipal, NE, United States [0.68in]
    KBIE 152335Z AUTO 17013G23KT 5SM +TSRA SCT013 SCT030 OVC090 21/19 A2978 RMK AO2 LTG DSNT ALQS P0054 T02140190
    KBIE 152355Z AUTO 15011G31KT 1 1/4SM +TSRA SCT006 BKN046 OVC070 20/19 A2975 RMK AO2 LTG DSNT ALQS P0068 60068 T02010188 10301 20196
  • KDNL: Augusta, Daniel Field, GA, United States [0.89in]
    KDNL 152323Z AUTO 21012G27KT 1 1/4SM +TSRA BKN012 24/21 A2998 RMK AO2 PK WND 21034/2312 WSHFT 2308 LTG DSNT NE RAB2254 TSB16 P0052 T02440211
    KDNL 152328Z AUTO 19012G21KT 2SM +TSRA SCT007 25/22 A2998 RMK AO2 PK WND 21034/2312 WSHFT 2308 LTG DSNT NE RAB2254 TSB16 P0061 T02500217
    KDNL 152335Z AUTO 19009G21KT 3SM VCTS -RA FEW003 26/21 A2998 RMK AO2 PK WND 21034/2312 WSHFT 2308 LTG DSNT NE AND E RAB2254 TSB16E31 P0071 T02560211
    KDNL 152353Z AUTO 11010KT 10SM VCTS CLR 26/21 A2997 RMK AO2 PK WND 21034/2312 WSHFT 2308 LTG DSNT NE RAB2254E45 TSB16E31 SLP143 P0089 60089 T02610211 10361 20244 51012
  • KGNV: Gainesville, Gainesville Regional Airport, FL, United States [0.53in]
    KGNV 152315Z 13003KT 2SM -TSRA BR SCT019 BKN043 24/22 A3003 RMK AO2 LTG DSNT S-NW TSB2258 P0053 T02390222 $
    KGNV 152319Z 00000KT 8SM VCTS -RA SCT021 BKN043 23/22 A3002 RMK AO2 LTG DSNT S-NW TSB2258E19 P0053 T02330222 $
    KGNV 152353Z 23004KT 10SM VCTS -RA SCT050 SCT070 BKN085 23/23 A3001 RMK AO2 LTG DSNT SW-NW RAE22B46 TSB2258E19 SLP158 P0053 60072 T02330228 10356 20228 53025 $
  • KLEE: Leesburg, Leesburg Regional Airport, FL, United States [0.70in]
    KLEE 152116Z 22004G15KT 1/4SM +TSRA FG BKN010 BKN018 OVC042 22/21 A3002 RMK AO2 PK WND 21035/2105 LTG DSNT ALQDS RAB2058 P0070 T02220206
  • KOFK: Norfolk, Stefan Memorial Airport, NE, United States [0.86in]
    KOFK 152336Z AUTO 26021G44KT 1/4SM +TSRA FG BKN007 OVC023 21/19 A2974 RMK AO2 PK WND 26044/2327 WSHFT 2317 LTG DSNT ALQDS P0051 T02060194
    KOFK 152341Z AUTO 01017G31KT 1/2SM +TSRA FG BKN010 OVC023 21/19 A2973 RMK AO2 PK WND 26044/2327 WSHFT 2317 LTG DSNT ALQDS P0086 T02060194
  • KOVL: Olivia, Olivia Regional Airport, MN, United States [0.68in]
    KOVL 152156Z AUTO 10004KT 1/2SM -RA OVC005 18/17 A2980 RMK AO2 P0068
  • KSUT: Oak Island, Brunswick County Airport, NC, United States [0.82in]
    KSUT 152050Z AUTO 18005G29KT M1/4SM OVC004 24/20 A2999 RMK AO2 P0082 60083 T02370202
0 stations reporting 3 or 6 hourly (melted) precip total of 5" or greater

0 stations reporting 3 or 6 hourly (melted) precip total of 4-4.99"

0 stations reporting 3 or 6 hourly (melted) precip total of 3-3.99"

0 stations reporting 3 or 6 hourly (melted) precip total of 2-2.99"


0 stations reporting tornado, funnel cloud or waterspout

0 stations reporting mammatus cloud

0 stations reporting hail

1 station reporting thundersnow

  • KMLP: Mullan Pass, Mullan Pass Vor, ID, United States
    KMLP 152114Z AUTO 32009G24KT 250V020 3/4SM -TSSN BR SCT006 BKN012 OVC040 00/M01 A2993 RMK AO2 VIS M1/4V2 1/2 LTG DSNT NW SNB2056 TSB09 P0007 T00001011
    KMLP 152116Z AUTO VRB05G18KT 1 1/4SM -TSSN BR SCT006 BKN016 OVC040 00/M01 A2994 RMK AO2 VIS 1/2V2 1/2 LTG DSNT NW SNB2056 TSB09 P0008 T00001011
    KMLP 152123Z AUTO VRB03G17KT 1 3/4SM -TSSN BR SCT008 BKN020 OVC041 00/M01 A2994 RMK AO2 VIS 3/4V5 LTG DSNT N AND NW SNB2056 TSB09 P0008 T00001011
    KMLP 152128Z AUTO VRB05KT 3/4SM -TSSN BR FEW006 BKN015 OVC045 00/M01 A2994 RMK AO2 LTG DSNT N AND NW SNB2056 TSB09 P0008 T00001011
    KMLP 152134Z AUTO VRB05KT 1SM -SN BR FEW006 BKN022 OVC045 00/M01 A2994 RMK AO2 LTG DSNT N AND NW SNB2056 TSB09E33 P0008 T00001011
    KMLP 152137Z AUTO VRB05KT 2 1/2SM VCTS -SN BR FEW006 BKN034 OVC055 00/M01 A2994 RMK AO2 VIS 3/4V5 LTG DSNT N SNB2056 TSB09E33 P0009 T00001011
    KMLP 152144Z AUTO 26007KT 4SM VCTS -SN BR FEW017 BKN038 OVC060 00/M02 A2994 RMK AO2 LTG DSNT N AND NW SNB2056 TSB09E33 P0009 T00001017
    KMLP 152153Z AUTO 6SM -SN BR FEW014 BKN042 OVC090 00/M02 A2994 RMK AO2 LTG DSNT N AND NW SNB2056 TSB09E33 SLP104 P0009 T00001017
    KMLP 152236Z AUTO 31011G36KT 2 1/2SM -SN BR SCT008 BKN030 OVC065 01/M01 A2996 RMK AO2 PK WND 29036/2235 VIS 1 1/4V5 LTG DSNT N AND NW P0000 T00061011
    KMLP 152240Z AUTO 32009G36KT 240V010 1 1/4SM -SN BR SCT008 BKN026 OVC065 01/M01 A2996 RMK AO2 PK WND 29036/2235 LTG DSNT N AND NW P0000 T00061011
    KMLP 152253Z AUTO 31007G19KT 240V360 1 1/4SM -SN BR SCT006 BKN012 OVC035 01/M01 A2996 RMK AO2 PK WND 29036/2235 LTG DSNT N SLP106 P0000 T00061006
    KMLP 152258Z AUTO 2SM -SN BR SCT006 BKN012 OVC043 01/00 A2996 RMK AO2 LTG DSNT N P0000 T00110000
    KMLP 152305Z AUTO VRB04G20KT 9SM FEW006 SCT013 BKN043 02/M01 A2996 RMK AO2 LTG DSNT N SNE04 P0000 T00171011
0 stations reporting thundersleet

0 stations reporting thunder with freezing rain

82 stations reporting thunder with rain

  • CYDB: Burwash Airport, Canada
    CYDB 152200Z 09009KT 050V120 7SM -TSRA SCT045 BKN050CB OVC077 13/07 A3009 RMK CU3CB3AC2 VIA CYXY SLP216 DENSITY ALT 2900FT
  • CYKY: Kindersley, Sask., Canada
    CYKY 152304Z 36018G26KT 15SM -TSRA SCT050 BKN060CB OVC090 19/03 A2953 RMK SC3CB4AC1 CB ALQDS SLP002 DENSITY ALT 3700FT
    CYKY 152332Z 02007G19KT 330V040 6SM -TSRA SCT030CB OVC050 16/06 A2960 RMK CB3SC5 CB ALQDS LTNG N PRESRR SLP028 DENSITY ALT 3300FT
    CYKY 160000Z 12004KT 030V130 8SM TSRA SCT048CB OVC060 14/08 A2961 RMK CB4SC4 CB ALQDS LTGCG N SLP036 DENSITY ALT 3100FT
    CYKY 160012Z 23007KT 190V250 8SM -TSRA SCT048CB OVC060 14/10 A2964 RMK CB4SC4 CB ALQDS LTGCG N PRESRR SLP046 DENSITY ALT 3000FT
    CYKY 160016Z 26008KT 200V270 8SM TSRA SCT046CB OVC060 14/08 A2964 RMK CB4SC4 CB ALQDS LTGCG N PRESRR SLP044 DENSITY ALT 3000FT
  • CYLW: Kelowna Airport, Canada
    CYLW 152057Z AUTO VRB20G26KT 8SM -TSRA SCT037 SCT046 BKN055 OVC075 12/08 A2986 RMK PRESRR SLP116
    CYLW 152100Z AUTO VRB15G26KT 7SM TSRA FEW034 SCT041 BKN050 OVC076 11/08 A2986 RMK SLP119
  • CYTL: Big Trout Lake, Canada
    CYTL 152134Z AUTO 05003KT 340V080 9SM -TSRA FEW032 BKN095 21/14 A2973 RMK SLP074 DENSITY ALT 1900FT
    CYTL 152147Z AUTO 02003KT 360V080 9SM -TSRA FEW066 BKN097 21/14 A2974 RMK SLP075 DENSITY ALT 1800FT
  • CYVC: La Ronge, Sask, Canada
    CYVC 160029Z 27008G19KT 12SM -TSRA BKN040CB BKN100 15/10 A2958 RMK CB5AC2 CIG RAG SLP025 DENSITY ALT 2000FT
    CYVC 160036Z 28010G16KT 250V310 3SM TSRA BKN040CB BKN100 15/11 A2958 RMK CB5AC2 SLP027 DENSITY ALT 2000FT
    CYVC 160036Z CCA 28010G16KT 250V310 3SM TSRA BR BKN040CB BKN100 15/11 A2958 RMK CB5AC2 CIG RAG SLP027 DENSITY ALT 2000FT
  • CYYC: Calgary International, Alta., Canada
    CYYC 152224Z 22012G27KT 200V280 10SM -TSRA OVC038CB 10/04 A2968 RMK CB8 SLP067 DENSITY ALT 4100FT
    CYYC 152239Z 20020KT 4SM TSRA OVC040CB 07/04 A2969 RMK CB8 SLP075
    CYYC 152250Z 20016G22KT 5SM -TSRA OVC036CB 07/05 A2969 RMK CB8 SLP075
    CYYC 152300Z 18014G20KT 5SM -TSRA OVC037CB 07/05 A2969 RMK CB8 SLP076
  • CYZW: Teslin, Y. T., Canada
    CYZW 152130Z 01017G26KT 300V040 30SM -TSRA SCT035CB OVC072 13/05 A3004 RMK CB2AC6 PRESRR SLP192 DENSITY ALT 2600FT
  • GGOV: Bissau Aeroport, Guinea-Bissau
    GGOV 152100Z 14005KT 100V190 6000 -TSRA SCT010 FEW018CB 24/22 Q1014 NOSIG
  • GOGG: Ziguinchor, Senegal
    GOGG 152100Z 28004KT 8000 -TSRA 23/23 Q1016
  • GOGS: Cap-Skirring, Senegal
    GOGS 152100Z 28004KT 8000 TSRA FEW013 SCT030CB 23/23 Q1016
    GOGS 152200Z 02004KT 8000 -TSRA FEW013 FEW030CB 22/22 Q1015
    GOGS 152300Z 02004KT 8000 -TSRA FEW013 FEW030CB 22/22 Q1014
  • K1AW: Alpha, WY, United States
    K1AW 152355Z AUTO 29010G30KT 7SM -TSRA FEW029 BKN100 OVC120 21/08 M RMK AO2 PK WND 29030/50 RAB28E40RAB51 TSB53 SLPNO P0004 60004 T02080084 10307 20208 $
  • K82V: Pine Bluffs Municipality, WY, United States
    K82V 160015Z AUTO 30032G42KT 7SM -TSRA 19/08 A2991 RMK AO2 LTG DSNT ALQS
    K82V 160035Z AUTO 34009KT 7SM -TSRA 14/08 A2990 RMK AO2 LTG DSNT ALQS
  • K96D: Walhalla, ND, United States
    K96D 160015Z AUTO 25015G24KT 2SM TSRA FEW004 BKN047 OVC055 19/20 A2961 RMK AO2 VIS 3/4V4
    K96D 160035Z AUTO 19006G12KT 2 1/2SM -TSRA SCT003 BKN033 OVC046 19/19 A2959 RMK AO2
  • K9D7: Cando, ND, United States
    K9D7 152235Z AUTO 08008KT 5SM -TSRA FEW003 BKN036 BKN100 21/21 A2962 RMK AO2 LTG DSNT ALQDS
  • KAEL: Albert Lea, MN, United States
    KAEL 160016Z AUTO 18011G20KT 7SM TSRA SCT024 SCT037 OVC050 20/17 A2982 RMK AO2 LTG DSNT ALQDS
  • KAGS: Augusta, Bush Field, GA, United States
    KAGS 152344Z 02019G25KT 3SM -TSRA OVC070 26/22 A2996 RMK AO2 PK WND 32032/2329 WSHFT 2324 LTG DSNT NE RAB39 TSB10 P0001 T02560222
    KAGS 152353Z 04013G22KT 3SM -TSRA FEW055 OVC070 25/22 A2996 RMK AO2 PK WND 32032/2329 WSHFT 2336 LTG DSNT NE RAB39 TSB10B47 SLP143 P0008 60008 T02500217 10361 20244 53016
    KAGS 160000Z 06013KT 4SM -TSRA FEW055 BKN070 OVC090 25/22 A2996 RMK AO2 WSHFT 2340 P0001 T02500222
  • KAIK: Aiken, SC, United States
    KAIK 152335Z AUTO 12007KT 10SM -TSRA SCT039 BKN090 OVC120 25/22 A3001 RMK AO2 LTG DSNT NW THRU SE P0006 T02480221
  • KALS: Alamosa, San Luis Valley Regional Airport, CO, United States
    KALS 152252Z AUTO 36019G29KT 10SM -TSRA OVC100 19/07 A3012 RMK AO2 PK WND 32033/2236 WSHFT 2233 RAB50 TSB49 SLP131 P0000 T01890067
  • KAUM: Austin Municipal, MN, United States
    KAUM 160035Z AUTO 00000KT 10SM -TSRA OVC060 23/15 A2984 RMK AO2 LTG DSNT ALQDS
  • KBIE: Beatrice Municipal, NE, United States
    KBIE 152235Z AUTO 14005KT 10SM -TSRA SCT048 SCT060 BKN100 28/23 A2976 RMK AO2 LTG DSNT S THRU NW T02800232
  • KBKV: Brooksville, Hernando County Airport, FL, United States
    KBKV 160029Z 00000KT 6SM -TSRA SCT027 SCT055 OVC080 24/ A3001 RMK AO2 LTG DSNT E TSB29 P0003 T0244 $
  • KBTA: Blair, NE, United States
    KBTA 160035Z AUTO 19024G28KT 10SM -TSRA BKN023 BKN029 BKN050 25/21 A2976 RMK AO2 LTG DSNT ALQS T02480205
  • KCKI: Williamsburg, SC, United States
    KCKI 152235Z AUTO 05008KT 10SM TSRA SCT075 BKN090 OVC120 23/20 A3000 RMK AO2 LTG DSNT ALQDS
    KCKI 152315Z AUTO 10010G16KT 10SM -TSRA SCT060 SCT070 OVC090 22/21 A2998 RMK AO2 LTG DSNT E THRU S
  • KCRE: North Myrtle Beach, Grand Strand Airport, SC, United States
    KCRE 152053Z 35010G21KT 4SM TSRA FEW050 BKN080 OVC120 23/19 A2998 RMK AO1 PK WND 32032/2032 WSHFT 2028 LTG DSNT NE AND E AND SW RAB25 SLP151 P0020 60020 T02330194 50008
  • KCUT: Custer, Custer County Airport, SD, United States
    KCUT 160042Z AUTO 20007G20KT 6SM -TSRA BKN110 20/08 A2976 RMK AO2 RAB36 TSB36 P0000 T02000083 $
  • KD55: Langdon, ND, United States
    KD55 152315Z AUTO 27032G44KT 3SM -TSRA FEW003 BKN041 OVC055 23/21 A2959 RMK AO2
    KD55 152355Z AUTO 00000G22KT 1 1/4SM TSRA 20/20 A2962 RMK AO2
  • KDIK: Dickinson, Dickinson Municipal Airport, ND, United States
    KDIK 160040Z AUTO 06003KT 9SM -TSRA FEW050 FEW085 BKN110 23/19 A2949 RMK AO2 LTG DSNT SE AND S RAE08B33 TSB34 P0001 T02330189
  • KFCS: Fort Carson, CO, United States
    KFCS 152151Z 02015G43KT 10SM -TSRA SCT045CB BKN100 OVC120 28/01 A2991 RMK AO2A WSHFT 50 RAB49E50DZB50 SLP062 $
    KFCS 152155Z 29006G46KT 10SM -TSRA FEW008 FEW022 SCT055 SCT075 BKN100 OVC120 27/02 A2993 RMK AO2A PK WND 01046/51 RAB49E50DZB50E51RAB51 TSB51 PRESRR SLP069 P0003 T02660018 $
    KFCS 160030Z 23003KT 10SM -TSRA FEW060 BKN120 BKN150 28/03 A2987 RMK AO2A RAB30 SLP044 $
  • KFMM: Fort Morgan, CO, United States
    KFMM 160015Z AUTO 27010G36KT 220V320 4SM -TSRA HZ FEW060 BKN100 BKN120 27/10 A2980 RMK AO2 LTG DSNT ALQDS
  • KFRI: Fort Riley, KS, United States
    KFRI 152300Z AUTO 23015G39KT 2 1/2SM TSRA BKN036 OVC060 22/17 A2980 RMK AO2 VIS 7/8V5 SLP081 PNO $
    KFRI 152305Z AUTO 20012KT 7SM -TSRA BKN049 OVC060 23/17 A2979 RMK AO2 SLP077 PNO $
    KFRI 152321Z AUTO 14019G24KT 10SM -TSRA SCT047 23/18 A2979 RMK AO2 RAE12DZB12E18RAB21 SLP077 PNO $
  • KGEG: Spokane, Spokane Intl Arpt, WA, United States
    KGEG 152151Z 30016KT 10SM -TSRA FEW050 BKN070CB BKN090 14/02 A2993 RMK AO2 RAE2059B41 TSB51 OCNL LTGICCG NW TS NW MOV NE P0000 $
    KGEG 152153Z 30014G22KT 10SM -TSRA FEW050 BKN070CB BKN090 14/02 A2993 RMK AO2 RAE2059B41 TSB51 SLP134 OCNL LTGICCG NW-N TS NW-N MOV NE P0000 T01390017 $
    KGEG 160008Z 32018G23KT 9SM -TSRA SCT075CB BKN100 12/01 A2996 RMK AO2 WSHFT 2352 RAB03 TSB06 OCNL LTGIC W P0000 T01220011 $
  • KGNV: Gainesville, Gainesville Regional Airport, FL, United States
    KGNV 152315Z 13003KT 2SM -TSRA BR SCT019 BKN043 24/22 A3003 RMK AO2 LTG DSNT S-NW TSB2258 P0053 T02390222 $
  • KHJH: Hebron, Hebron Municipal Airport, NE, United States
    KHJH 152135Z AUTO 15010G20KT 3SM -TSRA SCT025 BKN033 OVC095 23/20 A2977 RMK AO2 LTG DSNT ALQS P0015 T02280196
    KHJH 152155Z AUTO 11003KT 10SM -TSRA SCT015 SCT030 BKN070 23/21 A2977 RMK AO2 LTG DSNT ALQS P0016 T02260206
  • KHUT: Hutchinson, Hutchinson Municipal Airport, KS, United States
    KHUT 152046Z 26045G67KT 1SM R13/2200VP6000FT TSRA SQ FEW055 BKN070CB 22/19 A2985 RMK AO2 PK WND 25067/2045 WSHFT 2019 LTG DSNT N AND SW RAB41 TSB28 TS OHD MOV ENE FREQ LTGICCG P0007
    KHUT 152102Z 23017G35KT 200V270 1SM R13/4000VP6000FT TSRA FEW037 SCT055CB OVC070 22/18 A2987 RMK AO2 PK WND 21035/2102 LTG DSNT N TS OHD MOV E FREQ LTGICCG P0016 T02170178
    KHUT 152121Z VRB03G31KT 2SM R13/5500VP6000FT TSRA BKN031 BKN055 OVC085 22/19 A2982 RMK AO2 PK WND 18048/2109 VIS 1V5 LTG DSNT N AND NE TS OHD MOV E FREQ LTGICCG P0049 T02220189 $
    KHUT 152130Z 00000KT 10SM -TSRA BKN031CB BKN055 OVC085 22/19 A2982 RMK AO2 PK WND 18048/2109 TS 4E MOV E FREQ LTGICCG P0049 T02170189 $
  • KISM: Orlando, Kissimmee Municipal Airport, FL, United States
    KISM 152156Z 32016G21KT 10SM -TSRA SCT046 BKN060 26/23 A2999 RMK AO2 WSHFT 2130 LTG DSNT W-N RAB22 SLP154 P0000 T02610233 $
  • KLAL: Lakeland Regional, FL, United States
    KLAL 152245Z 16015G22KT 1SM TSRA FEW005 SCT010 BKN019 24/24 A3000 RMK TS OHD MOVG N OCLTGICCG OHD TSB33
    KLAL 152245Z COR 16015G22KT 1SM TSRA FEW005 SCT010 BKN019 24/24 A3000
    KLAL 152330Z 26010G17KT 1SM TSRA FEW005 BKN020 23/23 A3000 RMK TS N MOVG NE
  • KLEE: Leesburg, Leesburg Regional Airport, FL, United States
    KLEE 152102Z 16018G33KT 1 1/2SM TSRA BR FEW010 BKN045 OVC070 26/24 A3002 RMK AO2 PK WND 15033/2100 LTG DSNT ALQDS RAB2058 PRESRR P0008 T02560239
    KLEE 152147Z 34004KT 2SM -TSRA BR BKN030 OVC090 24/23 A2999 RMK AO2 PK WND 21035/2105 LTG DSNT ALQDS RAB2058 TSE37B46 P0145
    KLEE 152153Z 00000KT 6SM -TSRA BR SCT036 BKN080 OVC100 24/23 A2999 RMK AO2 PK WND 21035/2105 LTG DSNT ALQDS RAB2058 TSE37B46 SLP154 P0145 T02390233
  • KMHK: Manhattan, Manhattan Municipal Airport, KS, United States
    KMHK 152309Z 25012G30KT 2 1/2SM -TSRA FEW035 BKN060 BKN075 23/17 A2980 RMK AO2 PK WND 24040/2253 LTG DSNT ALQDS RAB2255 TSB09 P0013 T02280172
  • KMNH: Elbert Mountain, Monument Pass, CO, United States
    KMNH 152115Z AUTO 29021G27KT 10SM TSRA OVC100 21/07 A3008 RMK AO2 LTG DSNT NW THRU E
    KMNH 152135Z AUTO 33005G23KT 10SM -TSRA SCT020 BKN075 OVC100 18/07 A3009 RMK AO2 LTG DSNT N THRU E P0001
  • KMYZ: Marysville, KS, United States
    KMYZ 152335Z AUTO 20009KT 10SM -TSRA SCT055 SCT070 BKN110 21/18 A2980 RMK AO2 LTG DSNT ALQS
    KMYZ 152355Z AUTO 23004KT 10SM TSRA SCT120 21/18 A2979 RMK AO2 LTG DSNT ALQS
    KMYZ 160015Z AUTO 09005KT 10SM -TSRA BKN100 BKN120 20/20 A2977 RMK AO2 P0001 LTG DSNT N THRU SE
  • KOFF: Omaha / Offutt AFB, NE, United States
    KOFF 160017Z 21021G33KT 10SM -TSRA SQ FEW023 FEW040 SCT050 BKN150 27/21 A2974 RMK AO2A RAB17 TSB12 SLP066
  • KOFK: Norfolk, Stefan Memorial Airport, NE, United States
    KOFK 152256Z AUTO 11012KT 8SM -TSRA FEW042 SCT055 BKN075 26/22 A2966 RMK AO2 LTG DSNT ALQDS RAB2159E28B55 PRESFR SLP033 P0000 T02560217
    KOFK 152313Z AUTO 35011KT 9SM -TSRA BKN023 BKN042 OVC060 23/19 A2969 RMK AO2 LTG DSNT ALQDS P0003 T02280194
    KOFK 160014Z AUTO 24013G27KT 3SM TSRA BKN048 BKN070 OVC095 21/17 A2973 RMK AO2 PK WND 17027/0010 WSHFT 0000 LTG DSNT ALQDS P0025 T02060172
    KOFK 160031Z AUTO 2 1/2SM TSRA BR SCT050 BKN075 OVC095 18/16 A2972 RMK AO2 PK WND 17027/0010 WSHFT 0000 LTG DSNT ALQDS P0043 T01830161
    KOFK 160039Z AUTO 35014G21KT 7SM TSRA FEW050 BKN060 OVC095 18/16 A2974 RMK AO2 PK WND 17027/0010 WSHFT 0000 LTG DSNT ALQDS P0046 T01830161
  • KOLM: Olympia, Olympia Airport, WA, United States
    KOLM 152115Z 30005G20KT 4SM TSRA SCT031 BKN041 OVC050 11/08 A3012 RMK AO2 PK WND 27027/2059 RAB2059 TSB09 P0007 T01060078
  • KOLU: Columbus Municipal, NE, United States
    KOLU 152256Z AUTO 16020G28KT 9SM -TSRA BKN028 BKN055 28/23 A2969 RMK AO2 PK WND 17028/2248 LTG DSNT SW-N TSB50RAB55 PRESFR SLP043 P0000 T02780228
  • KOMA: Omaha, Eppley Airfield, NE, United States
    KOMA 160035Z COR 21022G32KT 10SM -TSRA FEW026 SCT040CB BKN100 OVC150 24/20 A2975 RMK AO2 PK WND 15034/0024 WSHFT 0021 RAB13 TSE31 PRESRR FRQ LTGICCCCGSE MOV NE TS SW MOV NE P0000 T02440200 $
    KOMA 160042Z 20017G33KT 10SM -TSRA FEW026 SCT040CB BKN100 OVC150 22/19 A2974 RMK AO2 PK WND 15034/0024 WSHFT 0021 RAB13 TSB33 FRQ LTGICCCCG TS SE MOV NE P0000 T02220194 $
  • KPMV: Plattsmouth, NE, United States
    KPMV 160015Z AUTO 25023G33KT 10SM -TSRA SCT022 SCT028 SCT034 22/17 A2978 RMK AO2 LTG DSNT ALQS T02220171
  • KRCA: Ellsworth AFB, SD, United States
    KRCA 152141Z 30028G37KT 9SM -TSRA BKN110CB OVC160 33/01 A2957 RMK AO2A RAB41 TSB24 SLP985
    KRCA 152144Z 26016G37KT 9SM -TSRA SCT100CB BKN120 OVC160 33/01 A2957 RMK AO2A WSHFT 42 RAB41 TSB24 SLP985
    KRCA 152155Z 20004G32KT 9SM -TSRA SCT050CB SCT075 BKN090 OVC110 31/05 A2957 RMK AO2A PK WND 31037/41 RAB41E45DZB45E52RAB52 TSB24 SLP986 P0000 T03110047
  • KRCV: Del Norte, CO, United States
    KRCV 152115Z AUTO 13006KT 10SM -TSRA SCT035 BKN100 OVC120 20/10 A3019 RMK AO2 LTG DSNT ALQDS T01960104
  • KSFF: Spokane, Felts Field, WA, United States
    KSFF 152153Z 29004KT 10SM -TSRA FEW047 BKN075 BKN100 14/02 A2993 RMK AO2 TSB48 SLP135 P0001 T01390022
    KSFF 160018Z 30010G19KT 4SM TSRA SCT060 OVC070 11/04 A2997 RMK AO2 RAE2357B14 TSB12 P0001 T01060039
    KSFF 160018Z COR 30010G19KT 8SM TSRA SCT060CB BKN070 11/04 A2997 RMK AO2 RAE2357B14 TSB12 P0001 T01060039
  • KSLN: Salina, Salina Municipal Airport, KS, United States
    KSLN 152108Z 23044G67KT 3/4SM -TSRA SQ FEW015 BKN075 BKN095 28/17 A2981 RMK AO2 PK WND 23067/2107 LTG DSNT S AND SW RAB08 TSB04 PRESRR P0007 T02830172
    KSLN 152108Z COR 23044G67KT 3/4SM -TSRA SQ FEW015 BKN075 BKN095 28/17 A2981 RMK AO2 PK WND 23067/2107 LTG DSNT S AND SW OCNL LTGICCG TS OHD MOV E RAB08 TSB04 PRESRR P0007 T02830172
  • KULM: New Ulm Municipal, MN, United States
    KULM 160035Z AUTO 10009G14KT 7SM -TSRA SCT033 BKN048 19/17 A2975 RMK AO2 LTG DSNT NE THRU SW
  • KX60: Williston, FL, United States
    KX60 152335Z AUTO 36003KT 10SM -TSRA SCT025 BKN095 OVC110 A2998 RMK AO2 LTG DSNT ALQDS P0033
  • KXNO: North Airfield, SC, United States
    KXNO 152128Z AUTO 02009KT 10SM -TSRA BKN070 BKN085 BKN100 27/22 A2995 RMK AO2 RAB06E21RAB26 TSB28 SLP142 $
  • LIVP: Paganella, Italy
    LIVP 152055Z 22017KT 0600 -TSRA FG VV/// 06/06 Q1016
    LIVP 152055Z 22017KT 0600 -TSRA FG VV/// 06/06 Q1016 RMK MON INVIS VAL INVIS VIS MIN 0600
    LIVP 152155Z 23014KT 0300 -TSRA FG VV/// 06/06 Q1016
    LIVP 152155Z 23014KT 0300 -TSRA FG VV/// 06/06 Q1016 RMK MON INVIS VAL INVIS VIS MIN 0300
  • LTCE: Erzurum, Turkey
    LTCE 152144Z 13009KT 9999 -TSRA FEW025CB BKN035 13/11 Q1017 RETS NOSIG
    LTCE 152144Z 13009KT 9999 -TSRA FEW025CB BKN035 13/11 Q1017 RETS NOSIG RMK RWY08R 13006KT RWY26R 13010KT RWY08L 15004KT 100V200 2CB025 5CU035
    LTCE 152150Z 12008KT 9999 -TSRA FEW025CB BKN035 14/10 Q1017 RETS NOSIG
    LTCE 152150Z 12008KT 9999 -TSRA FEW025CB BKN035 14/10 Q1017 RETS NOSIG RMK RWY08R 13005KT RWY26R 13009KT RWY08L 15003KT 090V220 1CB025 5CU035
  • MGMM: Melchor de Mencos Airport, Guatemala
    MGMM 160010Z 11006KT 9999 -TSRA BKN020 FEW025CB CB/TS E/SE/S/SW
  • MGRT: Retalhuleu, Guatemala
    MGRT 152300Z 27008KT 2000 TSRA BKN012 FEW025CB OVC080 25/24 Q1007 A2974 CB/TS/LTNG N/NW/NNW VOLC STA MARIA Y SANTGO EN ACTV
  • MGSJ: San Jose, Guatemala
    MGSJ 160000Z 25004KT 8000 VCSH SCT018 BKN070 29/// Q1007 A2974 PCPN SMC N= PCPN 0.2 MGRT 160000Z 27006KT 5000 TSRA BKN012 FEW025CB OVC080 24/24 Q1007 A2974 CB/TS/LTNG N/NW/NNW VOLC STA MARIA Y SANTGO EN ACTV
  • MGTU: UNKNOWN,
    MGTU 152200Z 32004KT 8000 -TSRA FEW018 FEW022CB OVC070 25/24 CB/TS/N/NW/NNW
    MGTU 152300Z 22004KT 8000 -TSRA FEW018 FEW022CB OVC070 25/23 CB/TS/W/WNW/NW
  • MHLM: La Mesa San Pedro Sula, Honduras
    MHLM 160000Z 21016KT 6000 -TSRA SCT025 FEW030CB BKN070 29/25 Q1006 A2971 NOSIG
    MHLM 160010Z 21010KT 2000 -TSRA SCT025 FEW030CB BKN070 27/26 Q1006 A2971 NOSIG
  • MHPR: Palmerola Airport, Comayagua, Hondorus
    MHPR 152200Z 16010KT 8000 TSRA SCT050TCU FEW052CB BKN120 25/23 Q1011 A2985 NOSIG RMK CB TS N S
  • MHTE: Tela, Honduras
    MHTE 152214Z 00000KT 8000 -TSRA SCT024 FEW028CB BKN080 30/27 Q1004 A2965
    MHTE 152300Z VRB02KT 9000 -TSRA SCT024 FEW028CB BKN080 30/27 Q1004 A2965
  • MNCH: Chinandega, Nicaragua
    MNCH 152100Z 36006KT 4000 TSRA FEW022CB BKN023TCU 25/25 Q1008 2AS080 CB/N/NE TCU/W
  • MSSS: San Salvador / Ilopango, El Salvador
    MSSS 152250Z 14005KT 090V160 2000 TSRA BKN010 FEW030CB 23/23 Q1010 A2984
  • MUVR: Varadero, Matanzas, Cuba
    MUVR 152138Z 09014G25KT 060V130 5000 TSRA BKN015CB 24/22 Q1015 RMK CB AT I II AND III QUAD
    MUVR 152138Z 09014G25KT 060V130 5000 TSRA BKN015CB 24/22 Q1015 RMK CB AT I/ II AND III QUAD
    MUVR 152142Z 09016G27KT 050V130 4000 2000E TSRA BKN014CB 23/22 Q1014 RMK CB AT I II AND III QUAD
    MUVR 152142Z 09016G27KT 050V130 4000 2000E TSRA BKN014CB 23/22 Q1014 RMK CB AT I/II AND III QUAD
    MUVR 152150Z 07015G27KT 040V110 6000 -TSRA BKN016CB 23/21 Q1014
  • RORY: Yoron Island, Japan
    RORY 160030Z AUTO 26011KT 220V290 2100 -TSRA BR FEW005 SCT035 BKN044 //////CB 24/24 Q1011 RMK A2986 TS 15KM SW MOV UNKNOWN
  • SBMS: Mocoro / 17 Rosado, Brazil
    SBMS 152200Z 17004KT 6000 -TSRA BKN015 FEW030CB SCT090 24/24 Q1014 RERA
  • URRP: Platov International Airport, Russia
    URRP 152100Z 12005MPS 9000 -TSRA SCT060CB 22/21 Q1008 R05/290050
  • UWKD: Kazan', Russia
    UWKD 152306Z 32003MPS 9999 -TSRA SCT050CB 20/18 Q1014 R11/2///50 NOSIG RMK QFE750/1000
    UWKD 152330Z 35004MPS 310V020 9999 -TSRA SCT050CB 20/18 Q1013 R29/29//50 NOSIG RMK QFE749/0999
  • UWKE: Begishevo, Russia
    UWKE 152130Z 26006G12MPS 9999 -TSRA SCT050CB 23/19 Q1014 R21/090070 NOSIG RMK QFE743/0991
    UWKE 152200Z 30006G12MPS 260V330 9999 -TSRA BKN035CB 21/19 Q1014 R21/090070 NOSIG RMK QFE744/0992
    UWKE 152209Z 36003MPS 300V040 9999 -TSRA BKN035CB 21/18 Q1014 R21/090070 NOSIG RMK QFE744/0992
    UWKE 152230Z 02003MPS 9999 -TSRA BKN035CB 20/18 Q1014 R21/090070 NOSIG RMK QFE743/0991
  • UWLW: Ulyanovsk, Russia
    UWLW 152100Z 01003MPS 9999 -TSRA BKN040CB 21/19 Q1012 R02/290150 NOSIG RMK QFE752/1003
  • VNKT: Kathmandu Airport, Nepal
    VNKT 152100Z 28012G22KT 6000 TSRA FEW015 FEW025CB SCT030 BKN100 24/21 Q1009 NOSIG CB TO SW W NW N AND OVERHEAD
    VNKT 152130Z 30007G17KT 6000 -TSRA FEW015 FEW025CB SCT030 BKN100 22/20 Q1008 NOSIG CB TO SE S SW W NW N E AND OVERHEAD
  • VVPQ: Phu Quoc, Viet Nam
    VVPQ 160030Z 18010KT 140V230 8000 -TSRA BKN015 FEW017CB OVC040 25/24 Q1009 NOSIG
  • WABB: Biak / Mokmer, Indonesia
    WABB 160000Z 34004KT 160V340 7000 -TSRA FEW015CB SCT016 OVC100 26/25 Q1012
    WABB 160030Z 30007KT 130V300 6000 -TSRA FEW015CB SCT016 OVC100 25/25 Q1011
  • WIHH: Perdanakus, Indonesia
    WIHH 152100Z 34004KT 1000 TSRA FEW017CB BKN015 24/23 Q1009 CB OVER THE FIELD
    WIHH 152100Z 34004KT 1000 TSRA FEW017CB BKN015 24/23 Q1009 CB OVER THE FIELD METAR WABB 152100Z 33003KT 150V330 9999 FEW015 SCT100 25/24 Q1010 NOSIG
    WIHH 152130Z 01004KT 2000 TSRA FEW017CB BKN015 23/23 Q1009 CB OVER THE FIELD
    WIHH 152130Z 01004KT 2000 TSRA FEW017CB BKN015 23/23 Q1009 CB OVER THE FIELD METAR WAAA 152130Z VRB02KT 8000 FEW019 22/22 Q1009 NOSIG
  • WIII: Jakarta / Soekarno-Hatta, Indonesia
    WIII 152100Z 08015KT 2000 TSRA FEW015CB BKN016 24/23 Q1009
    WIII 152130Z VRB05KT 5000 -TSRA FEW017CB BKN018 24/23 Q1009 NOSIG RMK CB TO W
    WIII 152200Z VRB03KT 5000 -TSRA FEW017CB BKN018 25/23 Q1009 NOSIG RMK CB TO NW
  • WMKL: Langkawi, Malaysia
    WMKL 152200Z 26004KT 190V340 9000 -TSRA FEW017CB SCT026 26/25 Q1008
    WMKL 152300Z 29003KT 200V010 9000 -TSRA FEW010 FEW017CB SCT026 26/25 Q1009
    WMKL 160000Z VRB02KT 9999 -TSRA FEW010 FEW017CB SCT025 27/24 Q1010
  • WMKM: Malacca, Malaysia
    WMKM 160000Z 07003KT 040V140 9000 -TSRA FEW017CB SCT027 26/24 Q1010
  • WSAP: Singapore / Paya Lebar, Singapore
    WSAP 152100Z 22002KT 7000 -TSRA FEW015 FEW017TCU FEW018CB BKN150 24/23 Q1009 RESHRA
  • WSSL: Singapore / Seleta, Singapore
    WSSL 152100Z 23003KT 140V300 6000 -TSRA FEW016 FEW017CB FEW018TCU BKN160 24/23 Q1008
  • ZJSY: Sanya/Fenghuang, China
    ZJSY 160000Z VRB01MPS 9999 -TSRA FEW013 SCT020 FEW026CB BKN066 31/29 Q1006
  • ZSFZ: Fuzhou, China
    ZSFZ 152300Z 15002MPS 120V180 7000 -TSRA SCT003 BKN015 FEW020CB 26/25 Q1007


0 stations reporting blizzard conditions

0 stations reporting near-blizzard conditions


1 station reporting visibility of zero

  • LIVP: Paganella, Italy
    LIVP 152355Z 23014KT 0000 FG VV/// 05/04 Q1016
    LIVP 152355Z 23014KT 0000 FG VV/// 05/04 Q1016 RMK MON INVIS VAL INVIS VIS MIN 0000
14 stations reporting visibility 1/8 mile or less, but not zero

  • EPPO: Poznan, Poland [150meters]
    EPPO 160000Z 13001KT 0150 R28/P2000U FG NSC 14/14 Q1011
  • ESMK: Kristianstad / Everod, Sweden [150meters]
    ESMK 152150Z AUTO 11003KT 0200 R01/0700N R19/P2000N BR NCD 10/10 Q1008
    ESMK 152320Z AUTO 14002KT 0200 R01/1800N R19/1000N FG NCD 09/09 Q1009
    ESMK 152350Z AUTO 00000KT 0200 R01/1100N R19/0700N BCFG NCD 09/09 Q1009
    ESMK 160020Z AUTO 00000KT 0150 R01/1500D R19/0600N BCFG NCD 07/07 Q1009
  • ESNU: Umea Flygplats, Sweden [200meters]
    ESNU 152250Z AUTO 00000KT 0200 R14/P2000N R32/0450N BCFG NCD 10/09 Q1013
  • ESUT: Hemavan-Gierevarto, Sweden [100meters]
    ESUT 152350Z AUTO 32002KT 0100 R33/0275N FG NCD 05/05 Q1010
    ESUT 160020Z AUTO 16003KT 0150 R33/0400N FG NCD 04/04 Q1010
  • KSUT: Oak Island, Brunswick County Airport, NC, United States [<1/4mile]
    KSUT 152050Z AUTO 18005G29KT M1/4SM OVC004 24/20 A2999 RMK AO2 P0082 60083 T02370202
  • LRTC: Tulcea, Romania [200meters]
    LRTC 160000Z AUTO 32002KT 0200 R34/0225N FG NCD 16/14 Q1011
  • OITL: Ardabil, Iran [100meters]
    OITL 152153Z 19008KT 0100 R15/0375N FG VV002 13/13 Q1014
    OITL 152200Z 19008KT 0100 R15/0375N FG VV002 13/13 Q1014
    OITL 152253Z 03004KT 0100 R15/0800U FG VV002 11/11 Q1015
    OITL 152300Z 03004KT 0100 R15/0800U FG VV002 11/11 Q1015
    OITL 152353Z 06004KT 0100 R15/0500D FG VV002 11/11 Q1015
    OITL 160000Z 06004KT 0100 R15/0500D FG VV002 11/11 Q1015
  • RJCH: Hakodate Airport, Japan [200meters]
    RJCH 152142Z AUTO 25004KT 0200 R12/0225VP2000D FG OVC000 18/17 Q1002 RMK A2959
  • RJCK: Kushiro Airport, Japan [100meters]
    RJCK 152100Z AUTO 02004KT 0100 R17/0175N FG OVC000 14/14 Q1006
    RJCK 152222Z AUTO 03004KT 0100 R17/0225N FG OVC000 15/15 Q1006 RMK A2972
    RJCK 152234Z AUTO 02003KT 0100 R17/0150V0225N FG OVC000 15/15 Q1006 RMK A2972
    RJCK 152243Z AUTO 01003KT 0100 R17/0150V0275N FG OVC000 16/16 Q1006 RMK A2972
    RJCK 152248Z AUTO 02003KT 0100 R17/0175V0275N FG OVC000 16/16 Q1006 RMK A2972
    RJCK 152249Z AUTO 02003KT 0100 R17/0175V0275N -RA FG OVC000 16/16 Q1006 RMK A2972
    RJCK 152250Z AUTO 02003KT 0100 R17/0175V0275N FG OVC000 16/16 Q1006 RMK A2972
    RJCK 152300Z 04003KT 0200 R17/0275N +DZ VV001 16/16 Q1006
  • RJSA: Aomori Airport, Japan [100meters]
    RJSA 152140Z 07005KT 0100 R24/0100V0150N FG VV001 17/17 Q1002 RMK A2960
    RJSA 152200Z 06005KT 0100 R24/0100N FG VV001 17/17 Q1002
  • ROAH: Naha Airport, Japan [200meters]
    ROAH 152100Z 20006KT 0200 R18L/0800N R18R/0600N FG OVC001 26/26 Q1009
    ROAH 152100Z 20006KT 0200 R18L/0800N R18R/0600N FG OVC001 26/26 Q1009 RMK 8ST001 A2980
    ROAH 152106Z 21006KT 0200 R18L/0800N R18R/0550N FG OVC001 26/26 Q1009 RMK 8ST001 A2980
    ROAH 152118Z 21007KT 0200 R18L/0750N R18R/0550N FG VV001 26/26 Q1009 RMK A2980
    ROAH 152123Z 21008KT 0200 R18L/0750N R18R/0600N FG VV001 26/26 Q1009 RMK A2980
    ROAH 152130Z 22008KT 0200 R18L/0650N R18R/0600N FG VV001 26/26 Q1009
    ROAH 152130Z 22008KT 0200 R18L/0650N R18R/0600N FG VV001 26/26 Q1009 RMK A2980
    ROAH 152133Z 22008KT 0200 R18L/0650N R18R/0550N FG VV001 26/26 Q1009 RMK A2980
    ROAH 152138Z 22009KT 0200 R18L/0650N R18R/0600N FG VV001 26/26 Q1009 RMK A2981
    ROAH 152142Z 22009KT 0200 R18L/0700N R18R/0550V0750U FG VV001 26/26 Q1009 RMK A2981
    ROAH 152200Z 22008KT 0200 R18L/0650N R18R/0600N FG VV001 26/26 Q1009
    ROAH 152200Z 22008KT 0200 R18L/0650N R18R/0600N FG VV001 26/26 Q1009 RMK A2981
    ROAH 152201Z 22008KT 0200 R18L/0700N R18R/0650N FG VV001 26/26 Q1009 RMK A2981
    ROAH 152207Z 22008KT 0200 R18L/0800U R18R/0750U FG VV001 26/26 Q1009 RMK A2981
    ROAH 152209Z 22008KT 0200 R18L/0800N R18R/0800N FG VV001 26/26 Q1009 RMK A2981
    ROAH 160020Z 19006KT 0200 R18L/1100VP2000N R18R/0450N FG VCSH FEW000 BKN002 FEW020CB 26/26 Q1010 RMK 2ST000 7ST002 1CB020 A2985 CB NW-NE
    ROAH 160022Z 19006KT 0200 R18L/0750VP2000D R18R/0450N FG VCSH FEW000 BKN002 FEW020CB 26/26 Q1010 RMK 2ST000 7ST002 1CB020 A2985 CB NW-NE
    ROAH 160023Z 19006KT 0200 R18L/0750VP2000D R18R/0400V0500N FG VCSH FEW000 BKN002 FEW020CB 26/26 Q1010 RMK 2ST000 7ST002 1CB020 A2985 CB NW-NE
    ROAH 160025Z 19006KT 0200 R18L/0600VP2000D R18R/0400V0500N FG VCSH FEW000 BKN002 FEW020CB 26/26 Q1010 RMK 2ST000 7ST002 1CB020 A2985 CB NW-NE
  • UOOO: Alykel, Russia [150meters]
    UOOO 152300Z 33005MPS 0150 R01/0200N FG VV002 01/01 Q1012 R01/19//60 NOSIG RMK QBB060 QFE744/0992
  • VEPY: Pakyong Airport, India [100meters]
    VEPY 160030Z 20002KT 0100 FG VV/// 21/20 Q1011 NOSIG
  • YSTW: Tamworth Airport, Australia [150meters]
    YSTW 152100Z AUTO 00000KT 0200 FG BKN001 03/03 Q1015 RF00.0/000.2
    YSTW 152130Z AUTO 00000KT 0200 FG OVC001 04/03 Q1016 RF00.0/000.2
    YSTW 152200Z AUTO 08005KT 0150 FG BKN001 05/05 Q1016 RF00.0/000.2
    YSTW 152230Z AUTO 04001KT 0150 FG OVC001 06/06 Q1016 RF00.0/000.2
2 stations reporting visibility 75 miles or greater

  • KEDW: Edwards AFB, CA, United States [90miles]
    KEDW 152055Z 29013G19KT 90SM CLR 35/M08 A2981 RMK AO2A SLP065 T03521078 57018 $
  • KMWN: Mount Washington, NH, United States [90miles]
    KMWN 152059Z 30039G48KT 90SM SCT003 02/M00 RMK
    KMWN 152150Z 29040G52KT 90SM BKN003 02/00 RMK
    KMWN 152258Z 30038G46KT 90SM SCT003 BKN010 01/M00 RMK
    KMWN 152359Z 29038G45KT 90SM FEW003 SCT010 SCT080 01/M00 RMK 10029 20007
2 stations reporting visibility 50-74 miles

  • CYQL: Lethbridge, Alta., Canada [60miles]
    CYQL 152100Z 21017G23KT 60SM FEW060 BKN090 BKN160 17/02 A2965 RMK CU2AC3AC2 SLP041 DENSITY ALT 4300FT
    CYQL 152200Z 25026G36KT 60SM VCSH FEW035 BKN060 BKN130 12/03 A2970 RMK CU2SC3AC2 PRESRR SLP063 DENSITY ALT 3700FT
    CYQL 152300Z 26026G31KT 60SM FEW035 FEW060 SCT075 BKN280 13/02 A2969 RMK CU1SC1AC2CI2 DIST SH N-E SLP061 DENSITY ALT 3800FT
    CYQL 160000Z 24024G32KT 60SM FEW060 SCT100 BKN270 15/00 A2967 RMK CU2AC1CI3 SLP051 DENSITY ALT 4100FT
  • KEDW: Edwards AFB, CA, United States [50miles]
    KEDW 152155Z 29018G22KT 50SM CLR 35/M08 A2979 RMK AO2A SLP059 T03541077 $
    KEDW 152228Z 30019G27KT 50SM CLR 35/M08 A2977 RMK A02A SLP054 $
    KEDW 152228Z COR 30019G27KT 50SM CLR 35/M08 A2977 RMK A02A $ COR 2235
    KEDW 152255Z 29020G24KT 50SM CLR 35/M06 A2977 RMK AO2A PK WND 30027/47 SLP053 T03451063 $
    KEDW 152355Z 30018G24KT 50SM CLR 34/M07 A2976 RMK AO2A PK WND 29027/47 SLP049 T03361070 10360 20328 57015 $


0 stations reporting aurora

0 stations reporting solar/lunar eclipse


0 stations reporting inside a hurricane eye

0 stations reporting aircraft mishap

11 stations reporting bird hazard on the runway

  • SPHI: Chiclayo, Peru
    SPHI 152100Z 19019KT CAVOK 20/15 Q1012 RMK BIRD HAZARD RWY 19/01 PP000
    SPHI 152200Z 18019KT CAVOK 19/15 Q1012 RMK BIRD HAZARD RWY 19/01 TX23.4 PP000
    SPHI 152300Z 18017KT CAVOK 19/15 Q1012 RMK BIRD HAZARD RWY 19/01 PP000
    SPHI 160000Z 18017KT CAVOK 18/15 Q1013 RMK BIRD HAZARD RWY 19/01 PP000
  • SPHO: Ayacucho, Peru
    SPHO 152100Z VRB02KT 9999 SCT050 BKN080 23/04 Q1025 RMK BIRD HAZARD RWY 02/20 PP000
    SPHO 152200Z VRB02KT 9999 SCT070 23/05 Q1025 RMK TX23.7 BIRD HAZARD RWY 02/20 PP000
    SPHO 152300Z VRB02KT 9999 SCT070 21/05 Q1026 RMK BIRD HAZARD RWY 02/20 PP000
  • SPJE: Shumba, Peru
    SPJE 152100Z 13007KT 9999 SCT025 BKN090 24/22 Q1014 RMK BIRD HAZARD RWY 16/34 TX26.0 PP000
  • SPJL: Juliaca, Peru
    SPJL 152100Z 24004KT 160V300 CAVOK 17/M04 Q1033 RMK BIRD HAZARD RWY 12/30 PP000
    SPJL 152200Z 13010KT CAVOK 15/M03 Q1033 RMK TX18.6 BIRD HAZARD RWY 12/30 PP000
    SPJL 152300Z 13005KT CAVOK 12/M02 Q1034 RMK BIRD HAZARD RWY 12/30 PP000
    SPJL 160000Z 05006KT CAVOK 11/01 Q1034 RMK BIRD HAZARD RWY 12/30 PP000
  • SPME: Tumbes, Peru
    SPME 152100Z 34007KT 9999 FEW015 26/22 Q1011 RMK BIRD HAZARD RWY 32/14 PP000
    SPME 152200Z 33007KT 9999 FEW015 26/21 Q1010 RMK BIRD HAZARD RWY 32/14 PP000
    SPME 152300Z 33004KT 9999 FEW015 25/21 Q1011 RMK BIRD HAZARD RWY 32/14 TX 28.4 PP000
    SPME 160000Z 29003KT 9999 SCT015 24/21 Q1011 RMK BIRD HAZARD RWY 32/14 PP000
  • SPQT: Iquitos, Peru
    SPQT 152100Z 11004KT 090V160 9999 SCT020 FEW025TCU 28/24 Q1009 NOSIG RMK BIRD HAZARD RWY 06/24 PP000
    SPQT 152200Z 12003KT 080V170 9999 VCSH FEW008 SCT025 BKN100 27/24 Q1009 NOSIG RMK BIRD HAZARD RWY 06/24 TX32.5 PP000
    SPQT 152300Z 00000KT 9999 FEW008 SCT030 BKN100 27/24 Q1010 NOSIG RMK BIRD HAZARD RWY 06/24 PP000
  • SPSO: Pisco, Peru
    SPSO 152100Z 33008KT 8000 FEW008 SCT030 19/15 Q1014 RMK BIRD HAZARD RWY 22/04 PP000
    SPSO 152200Z 34008KT 8000 FEW009 SCT032 18/15 Q1014 RMK TX 19.6 BIRD HAZARD RWY 22/04 PP000
    SPSO 152300Z 35007KT 5000 BR FEW009 BKN029 18/15 Q1014 RMK BIRD HAZARD RWY 22/04 PP000
  • SPTU: Puerto Maldonado, Peru
    SPTU 152100Z VRB02KT 9999 FEW040 30/26 Q1009 RMK BIRD HAZARD RWY 01/19 PP000
    SPTU 152200Z 15004KT 110V180 9999 SCT030 28/26 Q1009 RMK TX32.6 BIRD HAZARD RWY 01/19 PP000
    SPTU 152300Z 18007KT 150V210 9999 FEW010 SCT014 27/26 Q1010 RMK BIRD HAZARD RWY 01/19 PP000
  • SPUR: Piura, Peru
    SPUR 152100Z 20010KT CAVOK 26/16 Q1011 RMK BIRD HAZARD RWY 19/01 PP000
    SPUR 152200Z 19014KT CAVOK 25/16 Q1011 RMK BIRD HAZARD RWY 19/01 TX.27.6 PP000
    SPUR 152300Z 19012KT CAVOK 23/16 Q1012 RMK BIRD HAZARD RWY 19/01 PP000
  • SPYL: Talara, Peru
    SPYL 152100Z /////KT 9999 BKN050 23/18 Q1011 RMK TX26.7 BIRD HAZARD RWY 17/35 PP000
  • SPZO: Cuzco, Peru
    SPZO 152100Z VRB03KT 9999 SCT050 SCT100 20/03 Q1029 NOSIG RMK BIRD HAZARD RWY 10/28 PP000
    SPZO 152130Z VRB04KT 9999 SCT050 SCT100 19/03 Q1029 NOSIG RMK BIRD HAZARD RWY 10/28
    SPZO 152200Z 01007KT 9999 SCT100 18/06 Q1029 NOSIG RMK BIRD HAZARD RWY 10/28 TX22.4 PP000
    SPZO 152230Z 35008KT 330V040 9999 SCT046 SCT080 17/06 Q1030 NOSIG RMK BIRD HAZARD RWY 10/28
    SPZO 152300Z 32006KT 280V030 9999 SCT046 16/06 Q1030 NOSIG RMK BIRD HAZARD RWY 10/28 PP000
    SPZO 152330Z 33006KT 280V010 9999 SCT050 16/06 Q1031 NOSIG RMK BIRD HAZARD RWY 10/28
    SPZO 160000Z 31003KT 250V350 9999 SCT046 SCT080 15/05 Q1031 NOSIG RMK BIRD HAZARD RWY 10/28 PP000
    SPZO 160030Z 28007KT 9000 SCT046 SCT080 14/06 Q1032 NOSIG RMK BIRD HAZARD RWY 10/28
0 stations reporting volcanic ash

0 stations reporting ice crystals/diamond dust

0 stations reporting blowing spray

0 stations reporting dust or duststorm

3 stations reporting sand or sandstorm

  • DAUE: El Golea, Algeria
    DAUE 152221Z 36021KT 1000 BLSA NSC 33/08 Q1015
    DAUE 152300Z 36019KT 1000 BLSA NSC 32/08 Q1015
    DAUE 160000Z 36022KT 1000 BLSA NSC 31/08 Q1016
  • DAUG: Ghardaia, Algeria
    DAUG 152045Z 32018KT 2000 BLSA NSC 34/09 Q1016
    DAUG 152100Z 31021KT 1000 BLSA NSC 34/09 Q1016
    DAUG 152200Z 34019KT 2000 BLSA NSC 33/08 Q1017
    DAUG 152237Z 33025KT 0800 BLSA SCT040 SCT233 32/08 Q1017
    DAUG 152300Z 32024G34KT 0800 BLSA FEW033TCU SCT040 31/10 Q1017
    DAUG 160000Z 34023G33KT 1000 BLSA SCT040 30/11 Q1017
  • OIYY: Yazd, Iran
    OIYY 152050Z 13010KT 4000 SA FEW100 28/07 Q1011
    OIYY 152100Z 13010KT 4000 SA FEW100 28/07 Q1011
    OIYY 152120Z 11010KT 4000 SA FEW100 28/07 Q1010
    OIYY 152130Z 11010KT 4000 SA FEW100 28/07 Q1010
    OIYY 152150Z 11010KT 4000 SA FEW040TCU 28/07 Q1010
    OIYY 152200Z 11010KT 4000 SA FEW040TCU 28/07 Q1010
    OIYY 152250Z 14004KT 5000 SA FEW040 26/07 Q1011
    OIYY 152300Z 14004KT 5000 SA FEW040 26/07 Q1011
    OIYY 152350Z 11010KT 5000 SA FEW040 27/07 Q1011
    OIYY 160000Z 11010KT 5000 SA FEW040 27/07 Q1011
2 stations reporting well-developed dust/sand whirls

  • MMQT: Queretaro, Qro., Mexico
    MMQT 160009Z 04015KT 10SM SCT020 28/07 A3011 RMK 8/100 PISTA CERRADA POR AERONAVE LLANTA PONCHADA
  • MMSM: Santa Lucia Air Force Base, Mexico
    MMSM 152142Z 06014G24KT 10SM BKN025 25/06 A3016 RMK 8/200 HZY PO
    MMSM 152246Z 02015KT 8SM BKN025 25/07 A3015 RMK 8/200 HZY PO
7 stations reporting smoke

  • AYPY: Moresby, Papua New Guinea
    AYPY 152200Z VRB03KT 9999 FUHZ FEW020 BKN050 24/21 Q1013
    AYPY 152200Z VRB03KT 9999 FUHZ FEW020 BKN050 24/21 Q1013=
    AYPY 152300Z VRB03KT 9999 FUHZ FEW020 BKN050 26/21 Q1014
    AYPY 152300Z VRB03KT 9999 FUHZ FEW020 BKN050 26/21 Q1014=
    AYPY 160000Z 18005KT 9999 FUHZ FEW020 SCT040 28/21 Q1014
    AYPY 160000Z 18005KT 9999 FUHZ FEW020 SCT040 28/21 Q1014=
  • CYGH: Fort Good Hope Airport, Canada
    CYGH 152200Z 35008KT 310V030 25SM SCT050 19/02 A3012 RMK CU3 FU SLP204 DENSITY ALT 600FT
  • KQD3: UNKNOWN,
    KQD3 152155Z COR 00000KT 4400 FU CLR 33/19 A2964 RMK AO2A SLPNO WND DATA ESTMD T03290185 COR 2220
    KQD3 152255Z 00000KT 8000 FU CLR 32/18 A2962 RMK AO2A SLP014 WND DATA ESTMD T03200179 404160307
  • KSJC: San Jose, San Jose Intl Arpt, CA, United States
    KSJC 152253Z 34010KT 10SM FEW010 FEW070 27/08 A2992 RMK AO2 SLP130 FU FEW010 T02720083
  • LMML: Luqa, Malta
    LMML 152045Z 24004KT CAVOK 22/19 Q1015 NOSIG RMK FU TO NW
    LMML 152115Z 25003KT CAVOK 21/19 Q1015 NOSIG RMK FU TO NW AND N
    LMML 152145Z 23004KT CAVOK 21/19 Q1015 NOSIG RMK FU TO NE
  • OPFA: Faisalabad, Pakistan
    OPFA 152055Z 23004KT 5000 FU NSC 33/24 Q0999 NOSIG
    OPFA 152155Z 27004KT 5000 FU NSC 33/24 Q0998 NOSIG
    OPFA 152255Z 27002KT 5000 FU NSC 32/22 Q0999 NOSIG
    OPFA 160000Z 00000KT 4000 FU NSC 31/22 Q0999 NOSIG
  • SBGO: Goiania Aeroporto, Brazil
    SBGO 152329Z 11005KT 2000 FU NSC 22/14 Q1021


Stations falling into 5 or more extreme categories

Stations falling into 4 extreme categories

Stations falling into 3 extreme categories

  • KGNV: Gainesville, Gainesville Regional Airport, FL, United States
        Precipitation Type/Intensity, Hourly Precip Total, Thunderstorm
  • KLEE: Leesburg, Leesburg Regional Airport, FL, United States
        Precipitation Type/Intensity, Hourly Precip Total, Thunderstorm
  • KMHK: Manhattan, Manhattan Municipal Airport, KS, United States
        Wind, Precipitation Type/Intensity, Thunderstorm
  • KOFK: Norfolk, Stefan Memorial Airport, NE, United States
        Wind, Hourly Precip Total, Thunderstorm
Stations falling into 2 extreme categories

  • CWVN: Val Marie Southeast, Sask, Canada
        Wind, Pressure Change
  • CYKY: Kindersley, Sask., Canada
        Precipitation Type/Intensity, Thunderstorm
  • CYZW: Teslin, Y. T., Canada
        Precipitation Type/Intensity, Thunderstorm
  • K1NM: November (grass Range), MT, United States
        Wind, Pressure Change
  • K1OM: Oscar (roy), MT, United States
        Wind, Pressure Change
  • K82V: Pine Bluffs Municipality, WY, United States
        Wind, Thunderstorm
  • KBIE: Beatrice Municipal, NE, United States
        Hourly Precip Total, Thunderstorm
  • KBKV: Brooksville, Hernando County Airport, FL, United States
        Precipitation Type/Intensity, Thunderstorm
  • KD55: Langdon, ND, United States
        Wind, Thunderstorm
  • KDNL: Augusta, Daniel Field, GA, United States
        Precipitation Type/Intensity, Hourly Precip Total
  • KEET: Alabaster, Shelby County Airport, AL, United States
        Dewpoint, Precipitation Type/Intensity
  • KFCS: Fort Carson, CO, United States
        Wind, Thunderstorm
  • KFFZ: Mesa / Falcon Field, AZ, United States
        Temperature, Visibility
  • KFMM: Fort Morgan, CO, United States
        Wind, Thunderstorm
  • KFRI: Fort Riley, KS, United States
        Wind, Thunderstorm
  • KGGW: Glasgow, Glasgow Intl Arpt, MT, United States
        Wind, Precipitation Type/Intensity
  • KGPI: Kalispell/Glacier Park, MT, United States
        Wind, Precipitation Type/Intensity
  • KGYR: Goodyear Municipal, AZ, United States
        Temperature, Visibility
  • KHUT: Hutchinson, Hutchinson Municipal Airport, KS, United States
        Wind, Thunderstorm
  • KLGC: La Grange, Callaway Airport, GA, United States
        Dewpoint, Precipitation Type/Intensity
  • KMWN: Mount Washington, NH, United States
        Wind, Visibility
  • KOVL: Olivia, Olivia Regional Airport, MN, United States
        Precipitation Type/Intensity, Hourly Precip Total
  • KSLN: Salina, Salina Municipal Airport, KS, United States
        Wind, Thunderstorm
  • KSUT: Oak Island, Brunswick County Airport, NC, United States
        Hourly Precip Total, Visibility
  • LIVP: Paganella, Italy
        Thunderstorm, Visibility
  • MHLC: La Ceiba Airport, Honduras
        Dewpoint, Precipitation Type/Intensity
  • MHLM: La Mesa San Pedro Sula, Honduras
        Dewpoint, Thunderstorm
  • MHTE: Tela, Honduras
        Dewpoint, Thunderstorm
  • MRLB: Liberia, Costa Rica
        Dewpoint, Precipitation Type/Intensity
  • MSLP: El Salvador Intl. Airport / Comalapa, El Salvador
        Dewpoint, Precipitation Type/Intensity
  • MUVR: Varadero, Matanzas, Cuba
        Dewpoint, Thunderstorm
  • NZCM: Williams Field, Antarctica
        Wind, Pressure
  • ROAH: Naha Airport, Japan
        Dewpoint, Visibility
  • RORY: Yoron Island, Japan
        Dewpoint, Thunderstorm
  • SPTU: Puerto Maldonado, Peru
        Dewpoint, Bird Hazard
  • WIHH: Perdanakus, Indonesia
        Dewpoint, Thunderstorm
  • ZJSY: Sanya/Fenghuang, China
        Dewpoint, Thunderstorm


91 unidentified stations (out of a total of 165 documented unknown stations)

  • ENUN (OLD)
  • EQPH (OLD)
  • EQYE (OLD)
  • EQYF (OLD)
  • EQYT (OLD)
  • EQYV (OLD)
  • HESX (NEW)
  • HKGO (OLD)
  • K0D8 (NEW)
  • K0W3 (NEW)
  • K10U (NEW)
  • K1B9 (NEW)
  • K1D8 (NEW)
  • K1K8 (NEW)
  • K2M8 (NEW)
  • K2R2 (NEW)
  • K3K7 (NEW)
  • K3W7 (NEW)
  • K42A (NEW)
  • K49B (NEW)
  • K4B8 (NEW)
  • K60R (NEW)
  • K8V7 (NEW)
  • K9Y1 (NEW)
  • KACZ (NEW)
  • KANR (NEW)
  • KBFA (NEW)
  • KC08 (NEW)
  • KCPP (NEW)
  • KCSB (NEW)
  • KD09 (NEW)
  • KDRP (NEW)
  • KE01 (NEW)
  • KE57 (NEW)
  • KE77 (NEW)
  • KETO (NEW)
  • KF95 (NEW)
  • KFOM (NEW)
  • KGDK (NEW)
  • KHVC (NEW)
  • KI40 (NEW)
  • KI95 (NEW)
  • KK83 (NEW)
  • KMCZ (NEW)
  • KMKQ (NEW)
  • KN79 (NEW)
  • KOYE (NEW)
  • KQA8 (OLD)
  • KQAL (OLD)
  • KQB3 (OLD)
  • KQCG (OLD)
  • KQD3 (OLD)
  • KQEK (OLD)
  • KQEO (OLD)
  • KQFL (OLD)
  • KQGE (OLD)
  • KQHB (OLD)
  • KQHC (OLD)
  • KQRD (OLD)
  • KQX2 (OLD)
  • KQXH (OLD)
  • KS12 (NEW)
  • KSBX (NEW)
  • KTQV (OLD)
  • KU64 (NEW)
  • KUWL (NEW)
  • KVGN (NEW)
  • KXIF (OLD)
  • LETU (OLD)
  • LIRY (NEW)
  • LRBV (NEW)
  • LTFO (OLD)
  • MGMT (OLD)
  • MGTU (OLD)
  • MMGA (NEW)
  • NZQN (NEW)
  • OEAR (OLD)
  • OEMN (NEW)
  • OKKK (NEW)
  • PACX (NEW)
  • PANU (NEW)
  • PAPE (NEW)
  • PFTO (NEW)
  • PFZK (NEW)
  • UBBZ (NEW)
  • VAHS (NEW)
  • VDSA (NEW)
  • VOGA (NEW)
  • VTSY (NEW)
  • WILL (NEW)
  • YBSU (NEW)